Observation data for Caprock Canyons on 12/13/2018      Previous  Date       Current Mesonet Observations  Soil Data  Daily Summary Page  Observations in Plain Language
KQU1 130601Z 24018KT 12/03 A2962 RMK A01 T01210033  RH  055%=      5-min Rain = 0
KQU1 130602Z 24021G26KT 12/03 A2962 RMK A01 T01210032  RH  055%=      5-min Rain = 0
KQU1 130603Z 24019G24KT 12/03 A2962 RMK A01 T01220032  RH  054%=      5-min Rain = 0
KQU1 130604Z 24018KT 12/03 A2962 RMK A01 T01210032  RH  054%=      5-min Rain = 0
KQU1 130605Z 24018G25KT 12/03 A2962 RMK A01 T01210032  RH  054%=      5-min Rain = 0
KQU1 130606Z 24019KT 12/03 A2962 RMK A01 T01210032  RH  054%=      5-min Rain = 0
KQU1 130607Z 24020KT 12/03 A2962 RMK A01 T01210031  RH  054%=      5-min Rain = 0
KQU1 130608Z 24021KT 12/03 A2962 RMK A01 T01210031  RH  054%=      5-min Rain = 0
KQU1 130609Z 24021KT 12/03 A2962 RMK A01 T01220031  RH  054%=      5-min Rain = 0
KQU1 130610Z 25019G24KT 12/03 A2962 RMK A01 T01220030  RH  054%=      5-min Rain = 0
KQU1 130611Z 25020KT 12/03 A2962 RMK A01 T01210030  RH  054%=      5-min Rain = 0
KQU1 130612Z 24019KT 12/03 A2962 RMK A01 T01210030  RH  054%=      5-min Rain = 0
KQU1 130613Z 25020KT 12/03 A2962 RMK A01 T01210030  RH  054%=      5-min Rain = 0
KQU1 130614Z 25020G25KT 12/03 A2962 RMK A01 T01210030  RH  054%=      5-min Rain = 0
KQU1 130615Z 24021G26KT 12/03 A2962 RMK A01 T01210030  RH  054%=      5-min Rain = 0
KQU1 130616Z 24019G25KT 12/03 A2962 RMK A01 T01200030  RH  054%=      5-min Rain = 0
KQU1 130617Z 25021G26KT 12/03 A2962 RMK A01 T01200029  RH  054%=      5-min Rain = 0
KQU1 130618Z 25023G28KT 12/03 A2962 RMK A01 T01210029  RH  053%=      5-min Rain = 0
KQU1 130619Z 25021KT 12/03 A2962 RMK A01 T01210029  RH  053%=      5-min Rain = 0
KQU1 130620Z 25021G26KT 12/03 A2962 RMK A01 T01210029  RH  053%=      5-min Rain = 0
KQU1 130621Z 25021KT 12/03 A2962 RMK A01 T01210029  RH  053%=      5-min Rain = 0
KQU1 130622Z 25021KT 12/03 A2962 RMK A01 T01200028  RH  053%=      5-min Rain = 0
KQU1 130623Z 25022KT 12/03 A2962 RMK A01 T01200028  RH  053%=      5-min Rain = 0
KQU1 130624Z 25022G27KT 12/03 A2962 RMK A01 T01200028  RH  054%=      5-min Rain = 0
KQU1 130625Z 24019KT 12/03 A2962 RMK A01 T01190028  RH  054%=      5-min Rain = 0
KQU1 130626Z 25020G27KT 12/03 A2962 RMK A01 T01180029  RH  054%=      5-min Rain = 0
KQU1 130627Z 25019G24KT 12/03 A2962 RMK A01 T01180029  RH  054%=      5-min Rain = 0
KQU1 130628Z 25022G27KT 12/03 A2961 RMK A01 T01170029  RH  055%=      5-min Rain = 0
KQU1 130629Z 25020KT 12/03 A2961 RMK A01 T01170029  RH  055%=      5-min Rain = 0
KQU1 130630Z 25020KT 12/03 A2962 RMK A01 T01170029  RH  055%=      5-min Rain = 0
KQU1 130631Z 24017G22KT 12/03 A2961 RMK A01 T01150029  RH  055%=      5-min Rain = 0
KQU1 130632Z 25019KT 11/03 A2961 RMK A01 T01140029  RH  056%=      5-min Rain = 0
KQU1 130633Z 24019KT 11/03 A2961 RMK A01 T01140029  RH  056%=      5-min Rain = 0
KQU1 130634Z 25017KT 11/03 A2961 RMK A01 T01130028  RH  056%=      5-min Rain = 0
KQU1 130635Z 24020G28KT 11/03 A2961 RMK A01 T01130028  RH  056%=      5-min Rain = 0
KQU1 130636Z 25020G27KT 11/03 A2961 RMK A01 T01130028  RH  056%=      5-min Rain = 0
KQU1 130637Z 24022KT 11/03 A2961 RMK A01 T01130028  RH  056%=      5-min Rain = 0
KQU1 130638Z 25020KT 11/03 A2961 RMK A01 T01130027  RH  056%=      5-min Rain = 0
KQU1 130639Z 25020KT 11/03 A2961 RMK A01 T01130027  RH  056%=      5-min Rain = 0
KQU1 130640Z 24019KT 11/03 A2961 RMK A01 T01130027  RH  056%=      5-min Rain = 0
KQU1 130641Z 25018KT 11/03 A2961 RMK A01 T01120027  RH  056%=      5-min Rain = 0
KQU1 130642Z 25019KT 11/03 A2961 RMK A01 T01120027  RH  056%=      5-min Rain = 0
KQU1 130643Z 25021KT 11/03 A2961 RMK A01 T01120026  RH  055%=      5-min Rain = 0
KQU1 130644Z 25021KT 11/03 A2961 RMK A01 T01130026  RH  055%=      5-min Rain = 0
KQU1 130645Z 25021G26KT 11/03 A2961 RMK A01 T01130025  RH  055%=      5-min Rain = 0
KQU1 130646Z 25021KT 11/03 A2961 RMK A01 T01140025  RH  054%=      5-min Rain = 0
KQU1 130647Z 25021KT 11/03 A2961 RMK A01 T01140025  RH  054%=      5-min Rain = 0
KQU1 130648Z 25023G28KT 11/02 A2961 RMK A01 T01140024  RH  054%=      5-min Rain = 0
KQU1 130649Z 25023KT 11/02 A2961 RMK A01 T01140024  RH  054%=      5-min Rain = 0
KQU1 130650Z 26024G30KT 11/02 A2961 RMK A01 T01140023  RH  054%=      5-min Rain = 0
KQU1 130651Z 26021KT 12/02 A2961 RMK A01 T01150023  RH  053%=      5-min Rain = 0
KQU1 130652Z 25020G25KT 11/02 A2961 RMK A01 T01140023  RH  053%=      5-min Rain = 0
KQU1 130653Z 26021G26KT 11/02 A2961 RMK A01 T01140023  RH  053%=      5-min Rain = 0
KQU1 130654Z 26024KT 11/02 A2961 RMK A01 T01140022  RH  053%=      5-min Rain = 0
KQU1 130655Z 26020G25KT 11/02 A2961 RMK A01 T01140022  RH  053%=      5-min Rain = 0
KQU1 130656Z 26019KT 11/02 A2961 RMK A01 T01130022  RH  053%=      5-min Rain = 0
KQU1 130657Z 26021KT 11/02 A2961 RMK A01 T01130022  RH  053%=      5-min Rain = 0
KQU1 130658Z 26020G26KT 11/02 A296 RMK A01 T01130021  RH  053%=      5-min Rain = 0
KQU1 130659Z 26020KT 11/02 A296 RMK A01 T01120021  RH  053%=      5-min Rain = 0
KQU1 130700Z 26021KT 11/02 A296 RMK A01 T01120021  RH  053%=      5-min Rain = 0
KQU1 130701Z 26023KT 11/02 A296 RMK A01 T01130021  RH  053%=      5-min Rain = 0
KQU1 130702Z 26020KT 11/02 A2961 RMK A01 T01120021  RH  053%=      5-min Rain = 0
KQU1 130703Z 26024G29KT 11/02 A296 RMK A01 T01120020  RH  053%=      5-min Rain = 0
KQU1 130704Z 26020G25KT 11/02 A2961 RMK A01 T01120020  RH  053%=      5-min Rain = 0
KQU1 130705Z 26023KT 11/02 A2961 RMK A01 T01120020  RH  053%=      5-min Rain = 0
KQU1 130706Z 26019G24KT 11/02 A2961 RMK A01 T01120020  RH  053%=      5-min Rain = 0
KQU1 130707Z 26021G26KT 11/02 A2961 RMK A01 T01120020  RH  053%=      5-min Rain = 0
KQU1 130708Z 26021G26KT 11/02 A2961 RMK A01 T01120020  RH  053%=      5-min Rain = 0
KQU1 130709Z 26020G25KT 11/02 A2961 RMK A01 T01110020  RH  053%=      5-min Rain = 0
KQU1 130710Z 26017KT 11/02 A2961 RMK A01 T01100020  RH  054%=      5-min Rain = 0
KQU1 130711Z 26019KT 11/02 A2961 RMK A01 T01100020  RH  054%=      5-min Rain = 0
KQU1 130712Z 26023KT 11/02 A296 RMK A01 T01100019  RH  054%=      5-min Rain = 0
KQU1 130713Z 26019KT 11/02 A296 RMK A01 T01110019  RH  053%=      5-min Rain = 0
KQU1 130714Z 26020G26KT 11/02 A296 RMK A01 T01100019  RH  053%=      5-min Rain = 0
KQU1 130715Z 27021G27KT 11/02 A296 RMK A01 T01100019  RH  053%=      5-min Rain = 0
KQU1 130716Z 26021KT 11/02 A296 RMK A01 T01100018  RH  053%=      5-min Rain = 0
KQU1 130717Z 26023KT 11/02 A296 RMK A01 T01100018  RH  053%=      5-min Rain = 0
KQU1 130718Z 27021G26KT 11/02 A296 RMK A01 T01100018  RH  053%=      5-min Rain = 0
KQU1 130719Z 26021KT 11/02 A296 RMK A01 T01100018  RH  053%=      5-min Rain = 0
KQU1 130720Z 26019KT 11/02 A296 RMK A01 T01100018  RH  053%=      5-min Rain = 0
KQU1 130721Z 26019G24KT 11/02 A296 RMK A01 T01090017  RH  053%=      5-min Rain = 0
KQU1 130722Z 26022KT 11/02 A296 RMK A01 T01080017  RH  053%=      5-min Rain = 0
KQU1 130723Z 26021KT 11/02 A296 RMK A01 T01090017  RH  053%=      5-min Rain = 0
KQU1 130724Z 26021KT 11/02 A296 RMK A01 T01090016  RH  053%=      5-min Rain = 0
KQU1 130725Z 26022G27KT 11/02 A296 RMK A01 T01090015  RH  052%=      5-min Rain = 0
KQU1 130726Z 26023KT 11/02 A296 RMK A01 T01100015  RH  052%=      5-min Rain = 0
KQU1 130727Z 26020G26KT 11/01 A296 RMK A01 T01110014  RH  051%=      5-min Rain = 0
KQU1 130728Z 26020KT 11/02 A296 RMK A01 T01100015  RH  052%=      5-min Rain = 0
KQU1 130729Z 26018KT 11/02 A296 RMK A01 T01090015  RH  052%=      5-min Rain = 0
KQU1 130730Z 26022KT 11/01 A296 RMK A01 T01090014  RH  052%=      5-min Rain = 0
KQU1 130731Z 26021KT 11/01 A296 RMK A01 T01100013  RH  051%=      5-min Rain = 0
KQU1 130732Z 26020KT 11/01 A296 RMK A01 T01100013  RH  051%=      5-min Rain = 0
KQU1 130733Z 26020G25KT 11/01 A296 RMK A01 T01100012  RH  051%=      5-min Rain = 0
KQU1 130734Z 26021KT 11/01 A296 RMK A01 T01100012  RH  051%=      5-min Rain = 0
KQU1 130735Z 26020KT 11/01 A296 RMK A01 T01100012  RH  051%=      5-min Rain = 0
KQU1 130736Z 26020KT 11/01 A296 RMK A01 T01090012  RH  051%=      5-min Rain = 0
KQU1 130737Z 26019KT 11/01 A296 RMK A01 T01090012  RH  051%=      5-min Rain = 0
KQU1 130738Z 26020G27KT 11/01 A296 RMK A01 T01080012  RH  051%=      5-min Rain = 0
KQU1 130739Z 26020KT 11/01 A296 RMK A01 T01090011  RH  051%=      5-min Rain = 0
KQU1 130740Z 26021KT 11/01 A296 RMK A01 T01090010  RH  051%=      5-min Rain = 0
KQU1 130741Z 27019KT 11/01 A296 RMK A01 T01090010  RH  050%=      5-min Rain = 0
KQU1 130742Z 27018KT 11/01 A296 RMK A01 T01090010  RH  050%=      5-min Rain = 0
KQU1 130743Z 27018G25KT 11/01 A296 RMK A01 T01090009  RH  050%=      5-min Rain = 0
KQU1 130744Z 27019G26KT 11/01 A296 RMK A01 T01090008  RH  050%=      5-min Rain = 0
KQU1 130745Z 27019KT 11/01 A296 RMK A01 T01100008  RH  049%=      5-min Rain = 0
KQU1 130746Z 27018G24KT 11/01 A296 RMK A01 T01100007  RH  049%=      5-min Rain = 0
KQU1 130747Z 26018KT 11/01 A296 RMK A01 T01100007  RH  049%=      5-min Rain = 0
KQU1 130748Z 27019KT 11/01 A296 RMK A01 T01110005  RH  048%=      5-min Rain = 0
KQU1 130749Z 27020KT 11/00 A296 RMK A01 T01120004  RH  047%=      5-min Rain = 0
KQU1 130750Z 26019KT 11/01 A296 RMK A01 T01120005  RH  048%=      5-min Rain = 0
KQU1 130751Z 27022KT 11/01 A296 RMK A01 T01110005  RH  048%=      5-min Rain = 0
KQU1 130752Z 27020G25KT 11/01 A296 RMK A01 T01110005  RH  048%=      5-min Rain = 0
KQU1 130753Z 26020KT 11/01 A296 RMK A01 T01110005  RH  048%=      5-min Rain = 0
KQU1 130754Z 27019KT 11/01 A296 RMK A01 T01100005  RH  049%=      5-min Rain = 0
KQU1 130755Z 26020G25KT 11/01 A296 RMK A01 T01090005  RH  049%=      5-min Rain = 0
KQU1 130756Z 27022KT 11/00 A296 RMK A01 T01100004  RH  048%=      5-min Rain = 0
KQU1 130757Z 26019G24KT 11/00 A296 RMK A01 T01100004  RH  048%=      5-min Rain = 0
KQU1 130758Z 26020KT 11/01 A296 RMK A01 T01090005  RH  049%=      5-min Rain = 0
KQU1 130759Z 26023KT 11/01 A296 RMK A01 T01080005  RH  049%=      5-min Rain = 0
KQU1 130800Z 27021KT 11/01 A296 RMK A01 T01070006  RH  050%=      5-min Rain = 0
KQU1 130801Z 26020G26KT 11/01 A296 RMK A01 T01060006  RH  050%=      5-min Rain = 0
KQU1 130802Z 27019KT 11/01 A296 RMK A01 T01050006  RH  050%=      5-min Rain = 0
KQU1 130803Z 27019G25KT 10/01 A296 RMK A01 T01040005  RH  050%=      5-min Rain = 0
KQU1 130804Z 27020G25KT 10/00 A296 RMK A01 T01040004  RH  050%=      5-min Rain = 0
KQU1 130805Z 27018KT 11/00 A296 RMK A01 T01050004  RH  050%=      5-min Rain = 0
KQU1 130806Z 27019KT 11/00 A296 RMK A01 T01050003  RH  049%=      5-min Rain = 0
KQU1 130807Z 27019KT 11/00 A296 RMK A01 T01050002  RH  049%=      5-min Rain = 0
KQU1 130808Z 27022KT 11/00 A296 RMK A01 T01060001  RH  048%=      5-min Rain = 0
KQU1 130809Z 27019KT 11/00 A296 RMK A01 T010700-0  RH  047%=      5-min Rain = 0
KQU1 130810Z 27019KT 11/M00 A296 RMK A01 T01081001  RH  047%=      5-min Rain = 0
KQU1 130811Z 27019KT 11/M00 A296 RMK A01 T01091002  RH  046%=      5-min Rain = 0
KQU1 130812Z 27021G26KT 11/M00 A296 RMK A01 T01111004  RH  045%=      5-min Rain = 0
KQU1 130813Z 27021G26KT 11/M01 A296 RMK A01 T01131005  RH  044%=      5-min Rain = 0
KQU1 130814Z 27020KT 11/M01 A296 RMK A01 T01131005  RH  044%=      5-min Rain = 0
KQU1 130815Z 27019KT 11/M01 A296 RMK A01 T01141005  RH  044%=      5-min Rain = 0
KQU1 130816Z 27018G23KT 11/M01 A296 RMK A01 T01141005  RH  044%=      5-min Rain = 0
KQU1 130817Z 27018G25KT 11/M01 A296 RMK A01 T01141005  RH  044%=      5-min Rain = 0
KQU1 130818Z 28021G26KT 11/M01 A296 RMK A01 T01141005  RH  044%=      5-min Rain = 0
KQU1 130819Z 28021G27KT 12/M01 A296 RMK A01 T01151006  RH  043%=      5-min Rain = 0
KQU1 130820Z 28022G27KT 12/M01 A296 RMK A01 T01161007  RH  043%=      5-min Rain = 0
KQU1 130821Z 27023KT 12/M01 A2959 RMK A01 T01171008  RH  042%=      5-min Rain = 0
KQU1 130822Z 27022KT 12/M01 A296 RMK A01 T01171008  RH  042%=      5-min Rain = 0
KQU1 130823Z 28023KT 12/M01 A296 RMK A01 T01171007  RH  042%=      5-min Rain = 0
KQU1 130824Z 28021KT 12/M01 A296 RMK A01 T01161007  RH  042%=      5-min Rain = 0
KQU1 130825Z 27022G27KT 12/M01 A296 RMK A01 T01161007  RH  042%=      5-min Rain = 0
KQU1 130826Z 27023KT 12/M01 A296 RMK A01 T01161007  RH  043%=      5-min Rain = 0
KQU1 130827Z 27019G25KT 12/M01 A296 RMK A01 T01151006  RH  043%=      5-min Rain = 0
KQU1 130828Z 27019G24KT 11/M00 A296 RMK A01 T01131004  RH  044%=      5-min Rain = 0
KQU1 130829Z 27017KT 11/M00 A296 RMK A01 T01101002  RH  046%=      5-min Rain = 0
KQU1 130830Z 27018G24KT 11/M00 A296 RMK A01 T01091002  RH  046%=      5-min Rain = 0
KQU1 130831Z 27019KT 11/M00 A296 RMK A01 T01081003  RH  046%=      5-min Rain = 0
KQU1 130832Z 27020KT 11/M00 A296 RMK A01 T01081002  RH  046%=      5-min Rain = 0
KQU1 130833Z 28020G28KT 11/M00 A296 RMK A01 T01081003  RH  046%=      5-min Rain = 0
KQU1 130834Z 28020G25KT 11/M00 A296 RMK A01 T01071003  RH  047%=      5-min Rain = 0
KQU1 130835Z 27019KT 11/M00 A296 RMK A01 T01071002  RH  047%=      5-min Rain = 0
KQU1 130836Z 27017KT 11/M00 A296 RMK A01 T01061002  RH  047%=      5-min Rain = 0
KQU1 130837Z 27020KT 11/M00 A296 RMK A01 T01051002  RH  048%=      5-min Rain = 0
KQU1 130838Z 28019G24KT 11/M00 A296 RMK A01 T01051002  RH  048%=      5-min Rain = 0
KQU1 130839Z 28023KT 10/M00 A296 RMK A01 T01041002  RH  048%=      5-min Rain = 0
KQU1 130840Z 28020KT 10/M00 A296 RMK A01 T01041001  RH  048%=      5-min Rain = 0
KQU1 130841Z 28021G27KT 10/M00 A296 RMK A01 T01031001  RH  048%=      5-min Rain = 0
KQU1 130842Z 28020KT 10/M00 A296 RMK A01 T01021001  RH  049%=      5-min Rain = 0
KQU1 130843Z 28020G26KT 10/M00 A296 RMK A01 T01011001  RH  049%=      5-min Rain = 0
KQU1 130844Z 28024G29KT 10/M00 A296 RMK A01 T01011001  RH  049%=      5-min Rain = 0
KQU1 130845Z 28022KT 10/M00 A2961 RMK A01 T01001001  RH  049%=      5-min Rain = 0
KQU1 130846Z 28023KT 10/M00 A2961 RMK A01 T01001001  RH  050%=      5-min Rain = 0
KQU1 130847Z 29020KT 10/00 A2962 RMK A01 T00980000  RH  050%=      5-min Rain = 0
KQU1 130848Z 28021KT 10/00 A2962 RMK A01 T00970001  RH  051%=      5-min Rain = 0
KQU1 130849Z 29018G25KT 10/00 A2962 RMK A01 T00950002  RH  052%=      5-min Rain = 0
KQU1 130850Z 28022G27KT 09/00 A2962 RMK A01 T00930002  RH  053%=      5-min Rain = 0
KQU1 130851Z 29020G25KT 09/00 A2962 RMK A01 T00930002  RH  053%=      5-min Rain = 0
KQU1 130852Z 29021KT 09/00 A2962 RMK A01 T00930001  RH  053%=      5-min Rain = 0
KQU1 130853Z 30022G28KT 09/00 A2962 RMK A01 T00930000  RH  052%=      5-min Rain = 0
KQU1 130854Z 30020G25KT 09/00 A2962 RMK A01 T00930000  RH  052%=      5-min Rain = 0
KQU1 130855Z 30020G26KT 09/00 A2962 RMK A01 T00920000  RH  052%=      5-min Rain = 0
KQU1 130856Z 30022G28KT 09/M00 A2962 RMK A01 T00921001  RH  052%=      5-min Rain = 0
KQU1 130857Z 30018G23KT 09/00 A2962 RMK A01 T009100-0  RH  053%=      5-min Rain = 0
KQU1 130858Z 30020G26KT 09/00 A2962 RMK A01 T009000-0  RH  053%=      5-min Rain = 0
KQU1 130859Z 30020KT 09/M00 A2962 RMK A01 T00901001  RH  053%=      5-min Rain = 0
KQU1 130900Z 30020G26KT 09/M00 A2962 RMK A01 T00911002  RH  052%=      5-min Rain = 0
KQU1 130901Z 30018G24KT 09/M00 A2962 RMK A01 T00911003  RH  052%=      5-min Rain = 0
KQU1 130902Z 30018G23KT 09/M00 A2962 RMK A01 T00911003  RH  052%=      5-min Rain = 0
KQU1 130903Z 30018G23KT 09/M00 A2963 RMK A01 T00911003  RH  051%=      5-min Rain = 0
KQU1 130904Z 30019KT 09/M00 A2963 RMK A01 T00921004  RH  051%=      5-min Rain = 0
KQU1 130905Z 30017KT 09/M00 A2963 RMK A01 T00911004  RH  051%=      5-min Rain = 0
KQU1 130906Z 30016KT 09/M00 A2963 RMK A01 T00911004  RH  051%=      5-min Rain = 0
KQU1 130907Z 30018KT 09/M01 A2963 RMK A01 T00911005  RH  051%=      5-min Rain = 0
KQU1 130908Z 30017KT 09/M01 A2963 RMK A01 T00911006  RH  051%=      5-min Rain = 0
KQU1 130909Z 30017KT 09/M01 A2963 RMK A01 T00921006  RH  050%=      5-min Rain = 0
KQU1 130910Z 31016KT 09/M01 A2963 RMK A01 T00921006  RH  050%=      5-min Rain = 0
KQU1 130911Z 31018KT 09/M01 A2963 RMK A01 T00921008  RH  049%=      5-min Rain = 0
KQU1 130912Z 31019KT 09/M01 A2963 RMK A01 T00941012  RH  047%=      5-min Rain = 0
KQU1 130913Z 32018G25KT 10/M02 A2963 RMK A01 T00971015  RH  046%=      5-min Rain = 0
KQU1 130914Z 33020KT 10/M02 A2963 RMK A01 T00991020  RH  043%=      5-min Rain = 0
KQU1 130915Z 32017KT 10/M02 A2963 RMK A01 T01011020  RH  043%=      5-min Rain = 0
KQU1 130916Z 33019KT 10/M02 A2963 RMK A01 T01011021  RH  042%=      5-min Rain = 0
KQU1 130917Z 33013KT 10/M02 A2963 RMK A01 T01021021  RH  042%=      5-min Rain = 0
KQU1 130918Z 33013G20KT 10/M02 A2963 RMK A01 T01021022  RH  042%=      5-min Rain = 0
KQU1 130919Z 33025G37KT 10/M03 A2964 RMK A01 T01021027  RH  040%=      5-min Rain = 0
KQU1 130920Z 34024G31KT 10/M03 A2964 RMK A01 T01031031  RH  039%=      5-min Rain = 0
KQU1 130921Z 33020KT 10/M03 A2964 RMK A01 T01031032  RH  039%=      5-min Rain = 0
KQU1 130922Z 34022G30KT 10/M03 A2964 RMK A01 T01021032  RH  039%=      5-min Rain = 0
KQU1 130923Z 32028G35KT 10/M03 A2964 RMK A01 T01021031  RH  039%=      5-min Rain = 0
KQU1 130924Z 33024G31KT 10/M03 A2965 RMK A01 T01001029  RH  040%=      5-min Rain = 0
KQU1 130925Z 33024KT 10/M03 A2965 RMK A01 T00981027  RH  041%=      5-min Rain = 0
KQU1 130926Z 35018G24KT 10/M03 A2965 RMK A01 T00971026  RH  042%=      5-min Rain = 0
KQU1 130927Z 36017G24KT 10/M03 A2965 RMK A01 T00961025  RH  043%=      5-min Rain = 0
KQU1 130928Z 35017G23KT 09/M02 A2965 RMK A01 T00941024  RH  043%=      5-min Rain = 0
KQU1 130929Z 36018G28KT 09/M02 A2965 RMK A01 T00931023  RH  044%=      5-min Rain = 0
KQU1 130930Z 35019G25KT 09/M02 A2965 RMK A01 T00921021  RH  045%=      5-min Rain = 0
KQU1 130931Z 34021G28KT 09/M02 A2966 RMK A01 T00901020  RH  046%=      5-min Rain = 0
KQU1 130932Z 35021G28KT 09/M02 A2966 RMK A01 T00891020  RH  046%=      5-min Rain = 0
KQU1 130933Z 35023G32KT 09/M02 A2966 RMK A01 T00881019  RH  047%=      5-min Rain = 0
KQU1 130934Z 34025G34KT 09/M02 A2966 RMK A01 T00861019  RH  048%=      5-min Rain = 0
KQU1 130935Z 35028G34KT 09/M02 A2965 RMK A01 T00851017  RH  049%=      5-min Rain = 0
KQU1 130936Z 35023G33KT 08/M02 A2966 RMK A01 T00831017  RH  049%=      5-min Rain = 0
KQU1 130937Z 34025G34KT 08/M02 A2966 RMK A01 T00821016  RH  050%=      5-min Rain = 0
KQU1 130938Z 34023G31KT 08/M02 A2965 RMK A01 T00811015  RH  051%=      5-min Rain = 0
KQU1 130939Z 34020G27KT 08/M02 A2965 RMK A01 T00801015  RH  051%=      5-min Rain = 0
KQU1 130940Z 34021KT 08/M01 A2965 RMK A01 T00781014  RH  052%=      5-min Rain = 0
KQU1 130941Z 35020G27KT 08/M01 A2965 RMK A01 T00771013  RH  053%=      5-min Rain = 0
KQU1 130942Z 35021G30KT 08/M01 A2965 RMK A01 T00761012  RH  054%=      5-min Rain = 0
KQU1 130943Z 33020G27KT 08/M01 A2966 RMK A01 T00751013  RH  054%=      5-min Rain = 0
KQU1 130944Z 34020G26KT 07/M01 A2966 RMK A01 T00741013  RH  054%=      5-min Rain = 0
KQU1 130945Z 35024G33KT 07/M01 A2966 RMK A01 T00731012  RH  055%=      5-min Rain = 0
KQU1 130946Z 35025G39KT 07/M01 A2966 RMK A01 T00721010  RH  056%=      5-min Rain = 0
KQU1 130947Z 35024G31KT 07/M01 A2967 RMK A01 T00711009  RH  057%=      5-min Rain = 0
KQU1 130948Z 35024G34KT 07/M01 A2967 RMK A01 T00691008  RH  058%=      5-min Rain = 0
KQU1 130949Z 35023G28KT 07/M01 A2967 RMK A01 T00681007  RH  059%=      5-min Rain = 0
KQU1 130950Z 35024G32KT 07/M01 A2967 RMK A01 T00661006  RH  060%=      5-min Rain = 0
KQU1 130951Z 00019G30KT 07/M00 A2967 RMK A01 T00651004  RH  061%=      5-min Rain = 0
KQU1 130952Z 34024G34KT 06/M00 A2967 RMK A01 T00631003  RH  063%=      5-min Rain = 0
KQU1 130953Z 34029G36KT 06/00 A2968 RMK A01 T006100-0  RH  065%=      5-min Rain = 0
KQU1 130954Z 35030G36KT 06/00 A2967 RMK A01 T00590002  RH  067%=      5-min Rain = 0
KQU1 130955Z 34023G34KT 06/00 A2968 RMK A01 T00570003  RH  068%=      5-min Rain = 0
KQU1 130956Z 35024G32KT 06/00 A2968 RMK A01 T00550004  RH  070%=      5-min Rain = 0
KQU1 130957Z 35029G41KT 05/01 A2967 RMK A01 T00540006  RH  071%=      5-min Rain = 0
KQU1 130958Z 34019KT 05/01 A2968 RMK A01 T00530006  RH  072%=      5-min Rain = 0
KQU1 130959Z 35020G28KT 05/01 A2968 RMK A01 T00520007  RH  073%=      5-min Rain = 0
KQU1 131000Z 35027G37KT 05/01 A2968 RMK A01 T00510008  RH  074%=      5-min Rain = 0
KQU1 131001Z 35026G35KT 05/01 A2968 RMK A01 T00510009  RH  074%=      5-min Rain = 0
KQU1 131002Z 35024G29KT 05/01 A2968 RMK A01 T00510009  RH  075%=      5-min Rain = 0
KQU1 131003Z 35028G34KT 05/01 A2967 RMK A01 T00510011  RH  075%=      5-min Rain = 0
KQU1 131004Z 35026G34KT 05/01 A2968 RMK A01 T00510011  RH  076%=      5-min Rain = 0
KQU1 131005Z 35024G33KT 05/01 A2967 RMK A01 T00510012  RH  076%=      5-min Rain = 0
KQU1 131006Z 35020G29KT 05/01 A2967 RMK A01 T00510012  RH  076%=      5-min Rain = 0
KQU1 131007Z 36022G32KT 05/01 A2967 RMK A01 T00510012  RH  076%=      5-min Rain = 0
KQU1 131008Z 35023G31KT 05/01 A2967 RMK A01 T00500012  RH  076%=      5-min Rain = 0
KQU1 131009Z 35024G29KT 05/01 A2967 RMK A01 T00510013  RH  076%=      5-min Rain = 0
KQU1 131010Z 35027G32KT 05/01 A2967 RMK A01 T00510013  RH  076%=      5-min Rain = 0
KQU1 131011Z 34025G35KT 05/01 A2967 RMK A01 T00510013  RH  077%=      5-min Rain = 0
KQU1 131012Z 35026G35KT 05/01 A2967 RMK A01 T00520014  RH  077%=      5-min Rain = 0
KQU1 131013Z 34026G35KT 05/01 A2968 RMK A01 T00520014  RH  077%=      5-min Rain = 0
KQU1 131014Z 35023G29KT 05/02 A2968 RMK A01 T00520015  RH  077%=      5-min Rain = 0
KQU1 131015Z 35022G29KT 05/02 A2968 RMK A01 T00520016  RH  078%=      5-min Rain = 0
KQU1 131016Z 34024G31KT 05/02 A2968 RMK A01 T00520016  RH  078%=      5-min Rain = 0
KQU1 131017Z 36025G39KT 05/02 A2968 RMK A01 T00520017  RH  078%=      5-min Rain = 0
KQU1 131018Z 35024G30KT 05/02 A2968 RMK A01 T00530017  RH  078%=      5-min Rain = 0
KQU1 131019Z 35027G37KT 05/02 A2968 RMK A01 T00530018  RH  078%=      5-min Rain = 0
KQU1 131020Z 35028G37KT 05/02 A2968 RMK A01 T00520018  RH  078%=      5-min Rain = 0
KQU1 131021Z 34024G31KT 05/02 A2969 RMK A01 T00520018  RH  079%=      5-min Rain = 0
KQU1 131022Z 35027G34KT 05/02 A2968 RMK A01 T00520019  RH  079%=      5-min Rain = 0
KQU1 131023Z 35023G32KT 05/02 A2969 RMK A01 T00520019  RH  079%=      5-min Rain = 0
KQU1 131024Z 35025G34KT 05/02 A2969 RMK A01 T00520019  RH  079%=      5-min Rain = 0
KQU1 131025Z 35032G40KT 05/02 A2968 RMK A01 T00520020  RH  080%=      5-min Rain = 0
KQU1 131026Z 35029G42KT 05/02 A2968 RMK A01 T00520020  RH  080%=      5-min Rain = 0
KQU1 131027Z 35032G39KT 05/02 A2969 RMK A01 T00520020  RH  080%=      5-min Rain = 0
KQU1 131028Z 34029G38KT 05/02 A2969 RMK A01 T00520020  RH  080%=      5-min Rain = 0
KQU1 131029Z 34028G37KT 05/02 A2968 RMK A01 T00520020  RH  080%=      5-min Rain = 0
KQU1 131030Z 35023G31KT 05/02 A2969 RMK A01 T00520021  RH  080%=      5-min Rain = 0
KQU1 131031Z 35027G39KT 05/02 A2969 RMK A01 T00520021  RH  080%=      5-min Rain = 0
KQU1 131032Z 35030G39KT 05/02 A2969 RMK A01 T00520021  RH  081%=      5-min Rain = 0
KQU1 131033Z 35028G35KT 05/02 A2969 RMK A01 T00520021  RH  081%=      5-min Rain = 0
KQU1 131034Z 35034G46KT 05/02 A2969 RMK A01 T00520021  RH  081%=      5-min Rain = 0
KQU1 131035Z 35030G37KT 05/02 A2969 RMK A01 T00520021  RH  081%=      5-min Rain = 0
KQU1 131036Z 34027G38KT 05/02 A2969 RMK A01 T00520021  RH  081%=      5-min Rain = 0
KQU1 131037Z 35028G36KT 05/02 A2969 RMK A01 T00520022  RH  081%=      5-min Rain = 0
KQU1 131038Z 34030G41KT 05/02 A2969 RMK A01 T00510022  RH  081%=      5-min Rain = 0
KQU1 131039Z 35023G41KT 05/02 A2969 RMK A01 T00510022  RH  081%=      5-min Rain = 0
KQU1 131040Z 35034G41KT 05/02 A2969 RMK A01 T00510022  RH  081%=      5-min Rain = 0
KQU1 131041Z 34027G39KT 05/02 A2969 RMK A01 T00510022  RH  081%=      5-min Rain = 0
KQU1 131042Z 35023G28KT 05/02 A2969 RMK A01 T00510022  RH  082%=      5-min Rain = 0
KQU1 131043Z 35025G33KT 05/02 A2969 RMK A01 T00510023  RH  082%=      5-min Rain = 0
KQU1 131044Z 35022G29KT 05/02 A297 RMK A01 T00510023  RH  082%=      5-min Rain = 0
KQU1 131045Z 35028G37KT 05/02 A297 RMK A01 T00510023  RH  082%=      5-min Rain = 0
KQU1 131046Z 35023G30KT 05/02 A297 RMK A01 T00510023  RH  082%=      5-min Rain = 0
KQU1 131047Z 35027G39KT 05/02 A297 RMK A01 T00510023  RH  082%=      5-min Rain = 0
KQU1 131048Z 35031G42KT 05/02 A297 RMK A01 T00510022  RH  082%=      5-min Rain = 0
KQU1 131049Z 34034G46KT 05/02 A297 RMK A01 T00510022  RH  081%=      5-min Rain = 0
KQU1 131050Z 34035G44KT 05/02 A297 RMK A01 T00510022  RH  081%=      5-min Rain = 0
KQU1 131051Z 35033G45KT 05/02 A297 RMK A01 T00510021  RH  081%=      5-min Rain = 0
KQU1 131052Z 34028G38KT 05/02 A297 RMK A01 T00510021  RH  081%=      5-min Rain = 0
KQU1 131053Z 35033G41KT 05/02 A297 RMK A01 T00510020  RH  081%=      5-min Rain = 0
KQU1 131054Z 35031G40KT 05/02 A297 RMK A01 T00500020  RH  081%=      5-min Rain = 0
KQU1 131055Z 35033G44KT 05/02 A297 RMK A01 T00500019  RH  080%=      5-min Rain = 0
KQU1 131056Z 35034G47KT 05/02 A297 RMK A01 T00500019  RH  080%=      5-min Rain = 0
KQU1 131057Z 34031G43KT 05/02 A297 RMK A01 T00500018  RH  080%=      5-min Rain = 0
KQU1 131058Z 34033G40KT 05/02 A297 RMK A01 T00490017  RH  080%=      5-min Rain = 0
KQU1 131059Z 35029G35KT 05/02 A297 RMK A01 T00490016  RH  080%=      5-min Rain = 0
KQU1 131100Z 35025G30KT 05/02 A297 RMK A01 T00480016  RH  080%=      5-min Rain = 0
KQU1 131101Z 35029G42KT 05/02 A297 RMK A01 T00480016  RH  080%=      5-min Rain = 0
KQU1 131102Z 34030G38KT 05/02 A297 RMK A01 T00480015  RH  079%=      5-min Rain = 0
KQU1 131103Z 35028G37KT 05/01 A297 RMK A01 T00470014  RH  079%=      5-min Rain = 0
KQU1 131104Z 35028G37KT 05/01 A297 RMK A01 T00470014  RH  079%=      5-min Rain = 0
KQU1 131105Z 35026G36KT 05/01 A297 RMK A01 T00470012  RH  078%=      5-min Rain = 0
KQU1 131106Z 35026G36KT 05/01 A2971 RMK A01 T00470011  RH  078%=      5-min Rain = 0
KQU1 131107Z 35026G35KT 05/01 A2971 RMK A01 T00470011  RH  078%=      5-min Rain = 0
KQU1 131108Z 35021G29KT 05/01 A2971 RMK A01 T00460011  RH  078%=      5-min Rain = 0
KQU1 131109Z 34024G36KT 05/01 A2972 RMK A01 T00460010  RH  077%=      5-min Rain = 0
KQU1 131110Z 35035G45KT 05/01 A2971 RMK A01 T00460006  RH  075%=      5-min Rain = 0
KQU1 131111Z 34032G45KT 05/00 A2972 RMK A01 T00460004  RH  074%=      5-min Rain = 0
KQU1 131112Z 36025G35KT 05/00 A2973 RMK A01 T00460004  RH  074%=      5-min Rain = 0
KQU1 131113Z 35022G31KT 05/00 A2973 RMK A01 T00460003  RH  074%=      5-min Rain = 0
KQU1 131114Z 35025G30KT 05/00 A2973 RMK A01 T00460002  RH  073%=      5-min Rain = 0
KQU1 131115Z 35026G34KT 05/00 A2973 RMK A01 T00460001  RH  073%=      5-min Rain = 0
KQU1 131116Z 35030G36KT 05/00 A2973 RMK A01 T00460000  RH  072%=      5-min Rain = 0
KQU1 131117Z 35031G40KT 05/M00 A2973 RMK A01 T00461001  RH  072%=      5-min Rain = 0
KQU1 131118Z 35025G35KT 05/M00 A2973 RMK A01 T00461001  RH  072%=      5-min Rain = 0
KQU1 131119Z 36024G33KT 05/M00 A2973 RMK A01 T00461001  RH  071%=      5-min Rain = 0
KQU1 131120Z 35023G31KT 05/M00 A2973 RMK A01 T00461001  RH  071%=      5-min Rain = 0
KQU1 131121Z 36025G40KT 05/M00 A2973 RMK A01 T00461002  RH  071%=      5-min Rain = 0
KQU1 131122Z 36030G38KT 05/M00 A2973 RMK A01 T00461004  RH  070%=      5-min Rain = 0
KQU1 131123Z 35027G39KT 05/M00 A2973 RMK A01 T00461004  RH  070%=      5-min Rain = 0
KQU1 131124Z 35029G36KT 05/M01 A2973 RMK A01 T00461006  RH  069%=      5-min Rain = 0
KQU1 131125Z 35025G34KT 05/M01 A2974 RMK A01 T00461006  RH  069%=      5-min Rain = 0
KQU1 131126Z 35029G42KT 05/M01 A2974 RMK A01 T00461008  RH  068%=      5-min Rain = 0
KQU1 131127Z 35031G38KT 05/M01 A2974 RMK A01 T00451009  RH  068%=      5-min Rain = 0
KQU1 131128Z 35029G36KT 05/M01 A2974 RMK A01 T00451009  RH  068%=      5-min Rain = 0
KQU1 131129Z 34031G46KT 05/M01 A2974 RMK A01 T00451010  RH  067%=      5-min Rain = 0
KQU1 131130Z 35026G41KT 05/M01 A2975 RMK A01 T00451011  RH  067%=      5-min Rain = 0
KQU1 131131Z 35028G42KT 04/M01 A2975 RMK A01 T00441012  RH  067%=      5-min Rain = 0
KQU1 131132Z 35026G35KT 04/M01 A2975 RMK A01 T00441012  RH  067%=      5-min Rain = 0
KQU1 131133Z 35029G38KT 04/M01 A2975 RMK A01 T00441012  RH  067%=      5-min Rain = 0
KQU1 131134Z 35024G36KT 04/M01 A2975 RMK A01 T00441012  RH  067%=      5-min Rain = 0
KQU1 131135Z 35029G36KT 04/M01 A2975 RMK A01 T00431013  RH  067%=      5-min Rain = 0
KQU1 131136Z 35027G41KT 04/M01 A2975 RMK A01 T00431013  RH  067%=      5-min Rain = 0
KQU1 131137Z 35027G35KT 04/M01 A2976 RMK A01 T00431014  RH  066%=      5-min Rain = 0
KQU1 131138Z 35033G42KT 04/M01 A2976 RMK A01 T00431014  RH  066%=      5-min Rain = 0
KQU1 131139Z 35030G42KT 04/M01 A2976 RMK A01 T00431014  RH  066%=      5-min Rain = 0
KQU1 131140Z 36027G35KT 04/M01 A2976 RMK A01 T00431014  RH  066%=      5-min Rain = 0
KQU1 131141Z 35029G43KT 04/M01 A2976 RMK A01 T00431014  RH  066%=      5-min Rain = 0
KQU1 131142Z 34031G41KT 04/M02 A2976 RMK A01 T00431015  RH  066%=      5-min Rain = 0
KQU1 131143Z 35030G42KT 04/M02 A2976 RMK A01 T00431015  RH  066%=      5-min Rain = 0
KQU1 131144Z 35024G43KT 04/M01 A2977 RMK A01 T00431014  RH  066%=      5-min Rain = 0
KQU1 131145Z 35029G41KT 04/M01 A2977 RMK A01 T00431014  RH  066%=      5-min Rain = 0
KQU1 131146Z 35029G41KT 04/M01 A2977 RMK A01 T00431014  RH  066%=      5-min Rain = 0
KQU1 131147Z 34027G33KT 04/M01 A2977 RMK A01 T00431014  RH  066%=      5-min Rain = 0
KQU1 131148Z 35026G34KT 04/M01 A2977 RMK A01 T00431014  RH  066%=      5-min Rain = 0
KQU1 131149Z 34028G36KT 04/M01 A2977 RMK A01 T00431014  RH  066%=      5-min Rain = 0
KQU1 131150Z 35029G36KT 04/M01 A2977 RMK A01 T00431014  RH  066%=      5-min Rain = 0
KQU1 131151Z 36028G36KT 04/M01 A2977 RMK A01 T00431013  RH  067%=      5-min Rain = 0
KQU1 131152Z 35026G33KT 04/M01 A2977 RMK A01 T00431013  RH  067%=      5-min Rain = 0
KQU1 131153Z 34028G35KT 04/M01 A2977 RMK A01 T00431013  RH  067%=      5-min Rain = 0
KQU1 131154Z 35030G39KT 04/M01 A2977 RMK A01 T00431013  RH  067%=      5-min Rain = 0
KQU1 131155Z 35032G42KT 04/M01 A2977 RMK A01 T00431013  RH  067%=      5-min Rain = 0
KQU1 131156Z 35026G38KT 04/M01 A2978 RMK A01 T00431012  RH  067%=      5-min Rain = 0
KQU1 131157Z 35025G31KT 04/M01 A2978 RMK A01 T00431012  RH  067%=      5-min Rain = 0
KQU1 131158Z 35023G33KT 04/M01 A2978 RMK A01 T00431012  RH  067%=      5-min Rain = 0
KQU1 131159Z 35022G30KT 04/M01 A2978 RMK A01 T00431012  RH  068%=      5-min Rain = 0
KQU1 131200Z 36026G43KT 04/M01 A2978 RMK A01 T00431011  RH  068%=      5-min Rain = 0
KQU1 131201Z 35029G38KT 04/M01 A2978 RMK A01 T00431012  RH  067%=      5-min Rain = 0
KQU1 131202Z 35028G37KT 04/M01 A2979 RMK A01 T00441011  RH  067%=      5-min Rain = 0
KQU1 131203Z 35028G33KT 04/M01 A2979 RMK A01 T00441011  RH  068%=      5-min Rain = 0
KQU1 131204Z 35034G42KT 04/M01 A2978 RMK A01 T00441011  RH  067%=      5-min Rain = 0
KQU1 131205Z 35024G38KT 04/M01 A2979 RMK A01 T00441010  RH  068%=      5-min Rain = 0
KQU1 131206Z 35024G33KT 04/M01 A2979 RMK A01 T00441010  RH  068%=      5-min Rain = 0
KQU1 131207Z 36020G25KT 05/M01 A2979 RMK A01 T00451009  RH  068%=      5-min Rain = 0
KQU1 131208Z 36023G40KT 04/M01 A2979 RMK A01 T00441010  RH  068%=      5-min Rain = 0
KQU1 131209Z 35028G36KT 04/M01 A2979 RMK A01 T00441009  RH  068%=      5-min Rain = 0
KQU1 131210Z 35024G34KT 05/M01 A2979 RMK A01 T00451009  RH  068%=      5-min Rain = 0
KQU1 131211Z 36023G35KT 05/M01 A2979 RMK A01 T00451009  RH  068%=      5-min Rain = 0
KQU1 131212Z 35025G36KT 05/M01 A2979 RMK A01 T00451009  RH  068%=      5-min Rain = 0
KQU1 131213Z 35025G36KT 05/M01 A2979 RMK A01 T00451009  RH  068%=      5-min Rain = 0
KQU1 131214Z 36026G35KT 05/M01 A2979 RMK A01 T00451009  RH  068%=      5-min Rain = 0
KQU1 131215Z 35029G38KT 05/M01 A2979 RMK A01 T00451009  RH  068%=      5-min Rain = 0
KQU1 131216Z 35020G31KT 05/M01 A298 RMK A01 T00451009  RH  068%=      5-min Rain = 0
KQU1 131217Z 36026G34KT 05/M01 A298 RMK A01 T00451009  RH  068%=      5-min Rain = 0
KQU1 131218Z 00027G39KT 05/M01 A298 RMK A01 T00451009  RH  068%=      5-min Rain = 0
KQU1 131219Z 35017G26KT 05/M01 A298 RMK A01 T00451008  RH  068%=      5-min Rain = 0
KQU1 131220Z 36022G36KT 05/M01 A298 RMK A01 T00451008  RH  068%=      5-min Rain = 0
KQU1 131221Z 36021G30KT 05/M01 A298 RMK A01 T00451008  RH  068%=      5-min Rain = 0
KQU1 131222Z 35027G40KT 05/M01 A298 RMK A01 T00451009  RH  068%=      5-min Rain = 0
KQU1 131223Z 36027G34KT 05/M01 A2981 RMK A01 T00451009  RH  068%=      5-min Rain = 0
KQU1 131224Z 35024G32KT 05/M01 A2981 RMK A01 T00451008  RH  068%=      5-min Rain = 0
KQU1 131225Z 35023G33KT 05/M01 A2981 RMK A01 T00451008  RH  068%=      5-min Rain = 0
KQU1 131226Z 35031G41KT 05/M01 A2981 RMK A01 T00461009  RH  068%=      5-min Rain = 0
KQU1 131227Z 36029G39KT 05/M01 A2981 RMK A01 T00461008  RH  068%=      5-min Rain = 0
KQU1 131228Z 36022G37KT 05/M01 A2981 RMK A01 T00461008  RH  068%=      5-min Rain = 0
KQU1 131229Z 35028G39KT 05/M01 A2981 RMK A01 T00461008  RH  068%=      5-min Rain = 0
KQU1 131230Z 35027G40KT 05/M01 A2981 RMK A01 T00461008  RH  068%=      5-min Rain = 0
KQU1 131231Z 00022G34KT 05/M01 A2982 RMK A01 T00461008  RH  068%=      5-min Rain = 0
KQU1 131232Z 01022G31KT 05/M01 A2982 RMK A01 T00461008  RH  068%=      5-min Rain = 0
KQU1 131233Z 35021G32KT 05/M01 A2982 RMK A01 T00461008  RH  068%=      5-min Rain = 0
KQU1 131234Z 35018G26KT 05/M01 A2982 RMK A01 T00461007  RH  068%=      5-min Rain = 0
KQU1 131235Z 36021G33KT 05/M01 A2982 RMK A01 T00461007  RH  069%=      5-min Rain = 0
KQU1 131236Z 35021G33KT 05/M01 A2982 RMK A01 T00451007  RH  069%=      5-min Rain = 0
KQU1 131237Z 35027G35KT 05/M01 A2982 RMK A01 T00451008  RH  068%=      5-min Rain = 0
KQU1 131238Z 35024G37KT 05/M01 A2982 RMK A01 T00451007  RH  069%=      5-min Rain = 0
KQU1 131239Z 35026G36KT 05/M01 A2982 RMK A01 T00451008  RH  069%=      5-min Rain = 0
KQU1 131240Z 36020G27KT 05/M01 A2983 RMK A01 T00451007  RH  069%=      5-min Rain = 0
KQU1 131241Z 36021G31KT 05/M01 A2983 RMK A01 T00451007  RH  069%=      5-min Rain = 0
KQU1 131242Z 00023G36KT 05/M01 A2983 RMK A01 T00451007  RH  069%=      5-min Rain = 0
KQU1 131243Z 00016G25KT 05/M01 A2983 RMK A01 T00451006  RH  069%=      5-min Rain = 0
KQU1 131244Z 36023G33KT 05/M01 A2983 RMK A01 T00451006  RH  069%=      5-min Rain = 0
KQU1 131245Z 00021G32KT 05/M01 A2983 RMK A01 T00451006  RH  069%=      5-min Rain = 0
KQU1 131246Z 35020G31KT 05/M01 A2983 RMK A01 T00451006  RH  070%=      5-min Rain = 0
KQU1 131247Z 36020G29KT 05/M01 A2983 RMK A01 T00451006  RH  070%=      5-min Rain = 0
KQU1 131248Z 36024G35KT 05/M01 A2983 RMK A01 T00451006  RH  070%=      5-min Rain = 0
KQU1 131249Z 36024G34KT 05/M01 A2983 RMK A01 T00451006  RH  070%=      5-min Rain = 0
KQU1 131250Z 35027G35KT 05/M01 A2983 RMK A01 T00451006  RH  070%=      5-min Rain = 0
KQU1 131251Z 35028G36KT 05/M01 A2983 RMK A01 T00451006  RH  069%=      5-min Rain = 0
KQU1 131252Z 35027G35KT 05/M01 A2983 RMK A01 T00451006  RH  069%=      5-min Rain = 0
KQU1 131253Z 35020G27KT 05/M01 A2983 RMK A01 T00451005  RH  070%=      5-min Rain = 0
KQU1 131254Z 35025G35KT 05/M01 A2983 RMK A01 T00451006  RH  070%=      5-min Rain = 0
KQU1 131255Z 35023G31KT 05/M01 A2983 RMK A01 T00451006  RH  070%=      5-min Rain = 0
KQU1 131256Z 36019G27KT 05/M01 A2983 RMK A01 T00451005  RH  070%=      5-min Rain = 0
KQU1 131257Z 36021G27KT 04/M01 A2983 RMK A01 T00441005  RH  070%=      5-min Rain = 0
KQU1 131258Z 00026G35KT 04/M01 A2983 RMK A01 T00441006  RH  070%=      5-min Rain = 0
KQU1 131259Z 35020G28KT 04/M01 A2983 RMK A01 T00441005  RH  070%=      5-min Rain = 0
KQU1 131300Z 36022G30KT 04/M01 A2983 RMK A01 T00441005  RH  070%=      5-min Rain = 0
KQU1 131301Z 36021G26KT 04/M01 A2984 RMK A01 T00441005  RH  070%=      5-min Rain = 0
KQU1 131302Z 36019G25KT 04/M01 A2984 RMK A01 T00441005  RH  071%=      5-min Rain = 0
KQU1 131303Z 35019G27KT 04/M01 A2983 RMK A01 T00441005  RH  071%=      5-min Rain = 0
KQU1 131304Z 36024G32KT 04/M01 A2983 RMK A01 T00441005  RH  071%=      5-min Rain = 0
KQU1 131305Z 35020G26KT 04/M01 A2984 RMK A01 T00441005  RH  071%=      5-min Rain = 0
KQU1 131306Z 34025G37KT 04/M01 A2984 RMK A01 T00441005  RH  071%=      5-min Rain = 0
KQU1 131307Z 34023G35KT 04/M01 A2984 RMK A01 T00441005  RH  071%=      5-min Rain = 0
KQU1 131308Z 36023G34KT 04/M01 A2984 RMK A01 T00441005  RH  071%=      5-min Rain = 0
KQU1 131309Z 35024G38KT 04/M01 A2984 RMK A01 T00441005  RH  070%=      5-min Rain = 0
KQU1 131310Z 36023G34KT 04/M01 A2984 RMK A01 T00441005  RH  070%=      5-min Rain = 0
KQU1 131311Z 36026G36KT 04/M01 A2984 RMK A01 T00441005  RH  070%=      5-min Rain = 0
KQU1 131312Z 36027G38KT 05/M01 A2984 RMK A01 T00451005  RH  070%=      5-min Rain = 0
KQU1 131313Z 36026G34KT 04/M01 A2985 RMK A01 T00441005  RH  070%=      5-min Rain = 0
KQU1 131314Z 35026G34KT 04/M01 A2985 RMK A01 T00441005  RH  070%=      5-min Rain = 0
KQU1 131315Z 36022G29KT 05/M01 A2985 RMK A01 T00451005  RH  070%=      5-min Rain = 0
KQU1 131316Z 35017G23KT 04/M01 A2985 RMK A01 T00441005  RH  070%=      5-min Rain = 0
KQU1 131317Z 36024G40KT 04/M01 A2985 RMK A01 T00441005  RH  070%=      5-min Rain = 0
KQU1 131318Z 35021G27KT 05/M01 A2986 RMK A01 T00451005  RH  070%=      5-min Rain = 0
KQU1 131319Z 36023G31KT 05/M01 A2986 RMK A01 T00451005  RH  070%=      5-min Rain = 0
KQU1 131320Z 35027G33KT 05/M01 A2986 RMK A01 T00451005  RH  070%=      5-min Rain = 0
KQU1 131321Z 35017G22KT 05/M01 A2986 RMK A01 T00451005  RH  070%=      5-min Rain = 0
KQU1 131322Z 35022G34KT 05/M01 A2986 RMK A01 T00451005  RH  070%=      5-min Rain = 0
KQU1 131323Z 35020G33KT 05/M01 A2986 RMK A01 T00451005  RH  070%=      5-min Rain = 0
KQU1 131324Z 36025G32KT 05/M01 A2986 RMK A01 T00451005  RH  070%=      5-min Rain = 0
KQU1 131325Z 36023G29KT 05/M01 A2986 RMK A01 T00451005  RH  070%=      5-min Rain = 0
KQU1 131326Z 35019G34KT 05/M01 A2986 RMK A01 T00461005  RH  070%=      5-min Rain = 0
KQU1 131327Z 35024G32KT 05/M01 A2986 RMK A01 T00461005  RH  070%=      5-min Rain = 0
KQU1 131328Z 36022G33KT 05/M01 A2987 RMK A01 T00461005  RH  069%=      5-min Rain = 0
KQU1 131329Z 36023G31KT 05/M01 A2987 RMK A01 T00461005  RH  069%=      5-min Rain = 0
KQU1 131330Z 36020G25KT 05/M01 A2987 RMK A01 T00461005  RH  070%=      5-min Rain = 0
KQU1 131331Z 35022G30KT 05/M01 A2987 RMK A01 T00461005  RH  070%=      5-min Rain = 0
KQU1 131332Z 35031G39KT 05/M01 A2987 RMK A01 T00461006  RH  069%=      5-min Rain = 0
KQU1 131333Z 35028G34KT 05/M01 A2987 RMK A01 T00461006  RH  069%=      5-min Rain = 0
KQU1 131334Z 00027G36KT 05/M01 A2987 RMK A01 T00461006  RH  069%=      5-min Rain = 0
KQU1 131335Z 00025G34KT 05/M01 A2987 RMK A01 T00461006  RH  069%=      5-min Rain = 0
KQU1 131336Z 35021G32KT 05/M01 A2987 RMK A01 T00461006  RH  069%=      5-min Rain = 0
KQU1 131337Z 35031G42KT 05/M01 A2987 RMK A01 T00461007  RH  069%=      5-min Rain = 0
KQU1 131338Z 35032G45KT 05/M01 A2987 RMK A01 T00471007  RH  068%=      5-min Rain = 0
KQU1 131339Z 36020G28KT 05/M01 A2987 RMK A01 T00471006  RH  068%=      5-min Rain = 0
KQU1 131340Z 36018G31KT 05/M01 A2987 RMK A01 T00471006  RH  069%=      5-min Rain = 0
KQU1 131341Z 35025G32KT 05/M01 A2987 RMK A01 T00471006  RH  069%=      5-min Rain = 0
KQU1 131342Z 35024G32KT 05/M01 A2987 RMK A01 T00471007  RH  068%=      5-min Rain = 0
KQU1 131343Z 35024G30KT 05/M01 A2987 RMK A01 T00471007  RH  068%=      5-min Rain = 0
KQU1 131344Z 35029G47KT 05/M01 A2987 RMK A01 T00461007  RH  068%=      5-min Rain = 0
KQU1 131345Z 35032G45KT 05/M01 A2987 RMK A01 T00471008  RH  068%=      5-min Rain = 0
KQU1 131346Z 35027G32KT 05/M01 A2987 RMK A01 T00471008  RH  068%=      5-min Rain = 0
KQU1 131347Z 01022G32KT 05/M01 A2987 RMK A01 T00471007  RH  068%=      5-min Rain = 0
KQU1 131348Z 35026G35KT 05/M01 A2988 RMK A01 T00471007  RH  068%=      5-min Rain = 0
KQU1 131349Z 35023G36KT 05/M01 A2987 RMK A01 T00471007  RH  068%=      5-min Rain = 0
KQU1 131350Z 35026G38KT 05/M01 A2987 RMK A01 T00471008  RH  068%=      5-min Rain = 0
KQU1 131351Z 35026G34KT 05/M01 A2987 RMK A01 T00471008  RH  067%=      5-min Rain = 0
KQU1 131352Z 35021G32KT 05/M01 A2987 RMK A01 T00471008  RH  067%=      5-min Rain = 0
KQU1 131353Z 35024G33KT 05/M01 A2988 RMK A01 T00471008  RH  067%=      5-min Rain = 0
KQU1 131354Z 01019G31KT 05/M01 A2987 RMK A01 T00471008  RH  067%=      5-min Rain = 0
KQU1 131355Z 36021G28KT 05/M01 A2988 RMK A01 T00481008  RH  067%=      5-min Rain = 0
KQU1 131356Z 35022G33KT 05/M01 A2988 RMK A01 T00481008  RH  067%=      5-min Rain = 0
KQU1 131357Z 36020G30KT 05/M01 A2988 RMK A01 T00471008  RH  067%=      5-min Rain = 0
KQU1 131358Z 35020G28KT 05/M01 A2988 RMK A01 T00471009  RH  067%=      5-min Rain = 0
KQU1 131359Z 35020G33KT 05/M01 A2988 RMK A01 T00471008  RH  067%=      5-min Rain = 0
KQU1 131400Z 36022G35KT 05/M01 A2988 RMK A01 T00471009  RH  067%=      5-min Rain = 0
KQU1 131401Z 36019G29KT 05/M01 A2988 RMK A01 T00471009  RH  067%=      5-min Rain = 0
KQU1 131402Z 35026G38KT 05/M01 A2988 RMK A01 T00481010  RH  066%=      5-min Rain = 0
KQU1 131403Z 36022G30KT 05/M01 A2988 RMK A01 T00481009  RH  066%=      5-min Rain = 0
KQU1 131404Z 35023G31KT 05/M01 A2988 RMK A01 T00481009  RH  066%=      5-min Rain = 0
KQU1 131405Z 35026G39KT 05/M01 A2988 RMK A01 T00481010  RH  066%=      5-min Rain = 0
KQU1 131406Z 00022G33KT 05/M01 A2988 RMK A01 T00481010  RH  066%=      5-min Rain = 0
KQU1 131407Z 01024G38KT 05/M01 A2988 RMK A01 T00481011  RH  066%=      5-min Rain = 0
KQU1 131408Z 36023G35KT 05/M01 A2989 RMK A01 T00481010  RH  066%=      5-min Rain = 0
KQU1 131409Z 36021G36KT 05/M01 A2989 RMK A01 T00481011  RH  066%=      5-min Rain = 0
KQU1 131410Z 35020G29KT 05/M01 A2989 RMK A01 T00481011  RH  066%=      5-min Rain = 0
KQU1 131411Z 36023G31KT 05/M01 A2989 RMK A01 T00481011  RH  066%=      5-min Rain = 0
KQU1 131412Z 36021G32KT 05/M01 A2989 RMK A01 T00481010  RH  066%=      5-min Rain = 0
KQU1 131413Z 35026G33KT 05/M01 A2989 RMK A01 T00481011  RH  066%=      5-min Rain = 0
KQU1 131414Z 36024G32KT 05/M01 A2989 RMK A01 T00481011  RH  065%=      5-min Rain = 0
KQU1 131415Z 36027G38KT 05/M01 A2989 RMK A01 T00481011  RH  065%=      5-min Rain = 0
KQU1 131416Z 01020G29KT 05/M01 A2989 RMK A01 T00481011  RH  065%=      5-min Rain = 0
KQU1 131417Z 00023G32KT 05/M01 A2989 RMK A01 T00481011  RH  065%=      5-min Rain = 0
KQU1 131418Z 35023G33KT 05/M01 A2989 RMK A01 T00481012  RH  065%=      5-min Rain = 0
KQU1 131419Z 35023G30KT 05/M01 A2989 RMK A01 T00481012  RH  065%=      5-min Rain = 0
KQU1 131420Z 36028G40KT 05/M01 A2989 RMK A01 T00481012  RH  065%=      5-min Rain = 0
KQU1 131421Z 36027G41KT 05/M01 A2989 RMK A01 T00481013  RH  065%=      5-min Rain = 0
KQU1 131422Z 35022G32KT 05/M01 A2989 RMK A01 T00491012  RH  065%=      5-min Rain = 0
KQU1 131423Z 35021G30KT 05/M01 A2989 RMK A01 T00481012  RH  065%=      5-min Rain = 0
KQU1 131424Z 35020G31KT 05/M01 A2989 RMK A01 T00481011  RH  065%=      5-min Rain = 0
KQU1 131425Z 35024G33KT 05/M01 A2989 RMK A01 T00481012  RH  065%=      5-min Rain = 0
KQU1 131426Z 00024G30KT 05/M01 A2989 RMK A01 T00481013  RH  065%=      5-min Rain = 0
KQU1 131427Z 36022G31KT 05/M01 A299 RMK A01 T00481013  RH  065%=      5-min Rain = 0
KQU1 131428Z 35028G37KT 05/M01 A2989 RMK A01 T00481013  RH  064%=      5-min Rain = 0
KQU1 131429Z 35026G33KT 05/M01 A299 RMK A01 T00481013  RH  064%=      5-min Rain = 0
KQU1 131430Z 36028G40KT 05/M01 A299 RMK A01 T00491014  RH  064%=      5-min Rain = 0
KQU1 131431Z 35027G37KT 05/M01 A299 RMK A01 T00491014  RH  064%=      5-min Rain = 0
KQU1 131432Z 00022G32KT 05/M01 A299 RMK A01 T00491014  RH  064%=      5-min Rain = 0
KQU1 131433Z 36023G36KT 05/M01 A299 RMK A01 T00491013  RH  064%=      5-min Rain = 0
KQU1 131434Z 36024G35KT 05/M01 A299 RMK A01 T00491014  RH  064%=      5-min Rain = 0
KQU1 131435Z 35027G39KT 05/M02 A299 RMK A01 T00491015  RH  064%=      5-min Rain = 0
KQU1 131436Z 00023G29KT 05/M01 A299 RMK A01 T00491014  RH  064%=      5-min Rain = 0
KQU1 131437Z 35023G36KT 05/M01 A299 RMK A01 T00491014  RH  064%=      5-min Rain = 0
KQU1 131438Z 36022G29KT 05/M01 A299 RMK A01 T00491014  RH  064%=      5-min Rain = 0
KQU1 131439Z 36018G24KT 05/M01 A299 RMK A01 T00491014  RH  064%=      5-min Rain = 0
KQU1 131440Z 36020G29KT 05/M01 A299 RMK A01 T00481014  RH  064%=      5-min Rain = 0
KQU1 131441Z 36025G32KT 05/M02 A299 RMK A01 T00481015  RH  064%=      5-min Rain = 0
KQU1 131442Z 35025G32KT 05/M02 A299 RMK A01 T00481015  RH  064%=      5-min Rain = 0
KQU1 131443Z 36025G32KT 05/M02 A2991 RMK A01 T00491015  RH  063%=      5-min Rain = 0
KQU1 131444Z 35028G38KT 05/M02 A299 RMK A01 T00491016  RH  063%=      5-min Rain = 0
KQU1 131445Z 35028G34KT 05/M02 A299 RMK A01 T00491016  RH  063%=      5-min Rain = 0
KQU1 131446Z 35022G31KT 05/M02 A2991 RMK A01 T00491015  RH  063%=      5-min Rain = 0
KQU1 131447Z 35020G33KT 05/M02 A2991 RMK A01 T00491016  RH  063%=      5-min Rain = 0
KQU1 131448Z 35021G30KT 05/M02 A2991 RMK A01 T00481016  RH  063%=      5-min Rain = 0
KQU1 131449Z 35021G29KT 05/M02 A2991 RMK A01 T00481016  RH  063%=      5-min Rain = 0
KQU1 131450Z 35025G32KT 05/M02 A2991 RMK A01 T00481016  RH  063%=      5-min Rain = 0
KQU1 131451Z 36024G32KT 05/M02 A2991 RMK A01 T00481016  RH  063%=      5-min Rain = 0
KQU1 131452Z 36028G36KT 05/M02 A2992 RMK A01 T00491017  RH  063%=      5-min Rain = 0
KQU1 131453Z 01018G26KT 05/M02 A2992 RMK A01 T00491016  RH  063%=      5-min Rain = 0
KQU1 131454Z 36019G24KT 05/M02 A2992 RMK A01 T00491016  RH  063%=      5-min Rain = 0
KQU1 131455Z 36017G25KT 05/M02 A2992 RMK A01 T00491016  RH  063%=      5-min Rain = 0
KQU1 131456Z 02018G29KT 05/M02 A2992 RMK A01 T00491016  RH  063%=      5-min Rain = 0
KQU1 131457Z 35018G26KT 05/M02 A2992 RMK A01 T00491016  RH  063%=      5-min Rain = 0
KQU1 131458Z 35022G32KT 05/M02 A2992 RMK A01 T00491017  RH  063%=      5-min Rain = 0
KQU1 131459Z 35023G35KT 05/M02 A2992 RMK A01 T00491017  RH  062%=      5-min Rain = 0
KQU1 131500Z 01020G28KT 05/M02 A2992 RMK A01 T00491017  RH  062%=      5-min Rain = 0
KQU1 131501Z 00029G36KT 05/M02 A2992 RMK A01 T00491018  RH  062%=      5-min Rain = 0
KQU1 131502Z 35023G37KT 05/M02 A2992 RMK A01 T00491018  RH  062%=      5-min Rain = 0
KQU1 131503Z 00025G35KT 05/M02 A2992 RMK A01 T00491018  RH  062%=      5-min Rain = 0
KQU1 131504Z 35020G29KT 05/M02 A2993 RMK A01 T00491018  RH  062%=      5-min Rain = 0
KQU1 131505Z 35025G33KT 05/M02 A2993 RMK A01 T00491019  RH  061%=      5-min Rain = 0
KQU1 131506Z 35024G31KT 05/M02 A2993 RMK A01 T00491019  RH  061%=      5-min Rain = 0
KQU1 131507Z 36020G28KT 05/M02 A2992 RMK A01 T00491018  RH  062%=      5-min Rain = 0
KQU1 131508Z 36016G23KT 05/M02 A2993 RMK A01 T00491017  RH  062%=      5-min Rain = 0
KQU1 131509Z 36026G37KT 05/M02 A2993 RMK A01 T00491019  RH  061%=      5-min Rain = 0
KQU1 131510Z 36020G37KT 05/M02 A2993 RMK A01 T00501018  RH  061%=      5-min Rain = 0
KQU1 131511Z 36026G40KT 05/M02 A2993 RMK A01 T00501019  RH  061%=      5-min Rain = 0
KQU1 131512Z 01020G32KT 05/M02 A2992 RMK A01 T00501019  RH  061%=      5-min Rain = 0
KQU1 131513Z 00018G29KT 05/M02 A2993 RMK A01 T00501019  RH  061%=      5-min Rain = 0
KQU1 131514Z 36023G33KT 05/M02 A2993 RMK A01 T00501019  RH  061%=      5-min Rain = 0
KQU1 131515Z 36020G29KT 05/M02 A2993 RMK A01 T00501019  RH  061%=      5-min Rain = 0
KQU1 131516Z 36024G32KT 05/M02 A2993 RMK A01 T00501020  RH  061%=      5-min Rain = 0
KQU1 131517Z 35028G43KT 05/M02 A2993 RMK A01 T00501020  RH  060%=      5-min Rain = 0
KQU1 131518Z 36026G37KT 05/M02 A2993 RMK A01 T00511021  RH  060%=      5-min Rain = 0
KQU1 131519Z 36021G36KT 05/M02 A2993 RMK A01 T00511020  RH  060%=      5-min Rain = 0
KQU1 131520Z 35018G26KT 05/M02 A2993 RMK A01 T00511019  RH  061%=      5-min Rain = 0
KQU1 131521Z 36027G36KT 05/M02 A2993 RMK A01 T00511021  RH  060%=      5-min Rain = 0
KQU1 131522Z 00024G34KT 05/M02 A2993 RMK A01 T00511021  RH  060%=      5-min Rain = 0
KQU1 131523Z 36019G28KT 05/M02 A2994 RMK A01 T00511020  RH  060%=      5-min Rain = 0
KQU1 131524Z 00018G29KT 05/M02 A2994 RMK A01 T00511020  RH  060%=      5-min Rain = 0
KQU1 131525Z 36019G28KT 05/M02 A2994 RMK A01 T00511020  RH  060%=      5-min Rain = 0
KQU1 131526Z 35020G29KT 05/M02 A2994 RMK A01 T00511020  RH  060%=      5-min Rain = 0
KQU1 131527Z 36018G24KT 05/M02 A2994 RMK A01 T00511020  RH  060%=      5-min Rain = 0
KQU1 131528Z 36022G32KT 05/M02 A2994 RMK A01 T00511021  RH  060%=      5-min Rain = 0
KQU1 131529Z 01024G32KT 05/M02 A2994 RMK A01 T00511020  RH  060%=      5-min Rain = 0
KQU1 131530Z 00018G31KT 05/M02 A2994 RMK A01 T00511021  RH  060%=      5-min Rain = 0
KQU1 131531Z 35018G31KT 05/M02 A2994 RMK A01 T00511019  RH  060%=      5-min Rain = 0
KQU1 131532Z 36017G34KT 05/M02 A2994 RMK A01 T00511020  RH  060%=      5-min Rain = 0
KQU1 131533Z 36028G36KT 05/M02 A2994 RMK A01 T00511021  RH  059%=      5-min Rain = 0
KQU1 131534Z 01024G32KT 05/M02 A2994 RMK A01 T00521021  RH  059%=      5-min Rain = 0
KQU1 131535Z 36030G35KT 05/M02 A2994 RMK A01 T00521021  RH  059%=      5-min Rain = 0
KQU1 131536Z 00024G33KT 05/M02 A2994 RMK A01 T00521021  RH  059%=      5-min Rain = 0
KQU1 131537Z 36022G34KT 05/M02 A2994 RMK A01 T00521020  RH  060%=      5-min Rain = 0
KQU1 131538Z 00025G34KT 05/M02 A2994 RMK A01 T00521021  RH  059%=      5-min Rain = 0
KQU1 131539Z 00016G25KT 05/M02 A2994 RMK A01 T00521021  RH  059%=      5-min Rain = 0
KQU1 131540Z 36021G38KT 05/M02 A2994 RMK A01 T00531020  RH  060%=      5-min Rain = 0
KQU1 131541Z 36019G29KT 05/M02 A2994 RMK A01 T00531020  RH  059%=      5-min Rain = 0
KQU1 131542Z 36018G26KT 05/M02 A2994 RMK A01 T00531019  RH  060%=      5-min Rain = 0
KQU1 131543Z 36027G38KT 05/M02 A2994 RMK A01 T00531021  RH  059%=      5-min Rain = 0
KQU1 131544Z 36019G29KT 05/M02 A2994 RMK A01 T00531021  RH  059%=      5-min Rain = 0
KQU1 131545Z 36018G30KT 05/M02 A2994 RMK A01 T00531020  RH  059%=      5-min Rain = 0
KQU1 131546Z 36019G29KT 05/M02 A2994 RMK A01 T00531020  RH  059%=      5-min Rain = 0
KQU1 131547Z 35021G29KT 05/M02 A2994 RMK A01 T00531020  RH  059%=      5-min Rain = 0
KQU1 131548Z 35019G29KT 05/M02 A2995 RMK A01 T00531019  RH  060%=      5-min Rain = 0
KQU1 131549Z 01016G25KT 05/M02 A2994 RMK A01 T00531019  RH  060%=      5-min Rain = 0
KQU1 131550Z 01019G35KT 05/M02 A2995 RMK A01 T00531020  RH  059%=      5-min Rain = 0
KQU1 131551Z 35026G39KT 05/M02 A2995 RMK A01 T00531020  RH  059%=      5-min Rain = 0
KQU1 131552Z 35020G31KT 05/M02 A2995 RMK A01 T00531021  RH  059%=      5-min Rain = 0
KQU1 131553Z 00023G36KT 05/M02 A2995 RMK A01 T00531020  RH  059%=      5-min Rain = 0
KQU1 131554Z 35031G45KT 05/M02 A2995 RMK A01 T00531021  RH  059%=      5-min Rain = 0
KQU1 131555Z 36035G47KT 05/M02 A2994 RMK A01 T00541021  RH  058%=      5-min Rain = 0
KQU1 131556Z 35032G42KT 05/M02 A2995 RMK A01 T00541021  RH  059%=      5-min Rain = 0
KQU1 131557Z 01022G31KT 05/M02 A2995 RMK A01 T00541021  RH  059%=      5-min Rain = 0
KQU1 131558Z 01019G28KT 05/M02 A2995 RMK A01 T00541020  RH  059%=      5-min Rain = 0
KQU1 131559Z 35026G33KT 05/M02 A2995 RMK A01 T00541021  RH  059%=      5-min Rain = 0
KQU1 131600Z 00023G37KT 05/M02 A2995 RMK A01 T00541021  RH  059%=      5-min Rain = 0
KQU1 131601Z 35025G33KT 05/M02 A2995 RMK A01 T00541021  RH  059%=      5-min Rain = 0
KQU1 131602Z 01022G31KT 05/M02 A2995 RMK A01 T00541021  RH  059%=      5-min Rain = 0
KQU1 131603Z 36019G29KT 05/M02 A2995 RMK A01 T00541020  RH  059%=      5-min Rain = 0
KQU1 131604Z 00032G44KT 05/M02 A2995 RMK A01 T00541022  RH  058%=      5-min Rain = 0
KQU1 131605Z 36025G36KT 05/M02 A2995 RMK A01 T00541021  RH  058%=      5-min Rain = 0
KQU1 131606Z 00025G33KT 05/M02 A2995 RMK A01 T00541021  RH  058%=      5-min Rain = 0
KQU1 131607Z 36020G29KT 05/M02 A2996 RMK A01 T00541021  RH  059%=      5-min Rain = 0
KQU1 131608Z 36018G31KT 05/M02 A2996 RMK A01 T00541020  RH  059%=      5-min Rain = 0
KQU1 131609Z 36014G22KT 05/M02 A2996 RMK A01 T00541020  RH  059%=      5-min Rain = 0
KQU1 131610Z 36014G19KT 05/M02 A2996 RMK A01 T00541019  RH  059%=      5-min Rain = 0
KQU1 131611Z 00024G30KT 05/M02 A2996 RMK A01 T00541020  RH  059%=      5-min Rain = 0
KQU1 131612Z 35030G46KT 05/M02 A2996 RMK A01 T00541022  RH  058%=      5-min Rain = 0
KQU1 131613Z 35022G33KT 05/M02 A2996 RMK A01 T00541022  RH  058%=      5-min Rain = 0
KQU1 131614Z 01017G24KT 05/M02 A2996 RMK A01 T00541021  RH  059%=      5-min Rain = 0
KQU1 131615Z 35023G33KT 05/M02 A2996 RMK A01 T00541022  RH  058%=      5-min Rain = 0
KQU1 131616Z 00024G37KT 05/M02 A2996 RMK A01 T00541022  RH  058%=      5-min Rain = 0
KQU1 131617Z 35027G37KT 05/M02 A2996 RMK A01 T00541023  RH  058%=      5-min Rain = 0
KQU1 131618Z 35028G35KT 05/M02 A2996 RMK A01 T00541023  RH  058%=      5-min Rain = 0
KQU1 131619Z 00025G40KT 05/M02 A2996 RMK A01 T00541023  RH  058%=      5-min Rain = 0
KQU1 131620Z 01023G35KT 05/M02 A2996 RMK A01 T00541022  RH  058%=      5-min Rain = 0
KQU1 131621Z 36025G37KT 05/M02 A2996 RMK A01 T00541023  RH  058%=      5-min Rain = 0
KQU1 131622Z 00020G28KT 05/M02 A2996 RMK A01 T00541023  RH  058%=      5-min Rain = 0
KQU1 131623Z 00026G41KT 05/M02 A2996 RMK A01 T00541023  RH  057%=      5-min Rain = 0
KQU1 131624Z 35022G33KT 05/M02 A2996 RMK A01 T00541024  RH  057%=      5-min Rain = 0
KQU1 131625Z 36022G36KT 05/M02 A2996 RMK A01 T00541024  RH  057%=      5-min Rain = 0
KQU1 131626Z 35033G45KT 05/M03 A2996 RMK A01 T00541025  RH  057%=      5-min Rain = 0
KQU1 131627Z 36025G39KT 05/M03 A2996 RMK A01 T00541025  RH  057%=      5-min Rain = 0
KQU1 131628Z 36024G31KT 05/M02 A2996 RMK A01 T00541024  RH  057%=      5-min Rain = 0
KQU1 131629Z 01020G29KT 05/M03 A2996 RMK A01 T00541025  RH  057%=      5-min Rain = 0
KQU1 131630Z 36028G38KT 05/M03 A2996 RMK A01 T00541026  RH  056%=      5-min Rain = 0
KQU1 131631Z 36030G44KT 05/M03 A2996 RMK A01 T00541027  RH  056%=      5-min Rain = 0
KQU1 131632Z 01024G34KT 05/M03 A2996 RMK A01 T00541026  RH  056%=      5-min Rain = 0
KQU1 131633Z 35021G28KT 05/M03 A2997 RMK A01 T00541025  RH  057%=      5-min Rain = 0
KQU1 131634Z 35020G29KT 05/M03 A2997 RMK A01 T00541025  RH  057%=      5-min Rain = 0
KQU1 131635Z 35027G35KT 05/M03 A2996 RMK A01 T00541027  RH  056%=      5-min Rain = 0
KQU1 131636Z 36028G38KT 05/M03 A2997 RMK A01 T00541027  RH  056%=      5-min Rain = 0
KQU1 131637Z 35026G38KT 05/M03 A2997 RMK A01 T00541027  RH  056%=      5-min Rain = 0
KQU1 131638Z 35033G40KT 05/M03 A2997 RMK A01 T00541028  RH  055%=      5-min Rain = 0
KQU1 131639Z 00024G37KT 05/M03 A2997 RMK A01 T00541028  RH  056%=      5-min Rain = 0
KQU1 131640Z 00022G33KT 05/M03 A2997 RMK A01 T00541028  RH  056%=      5-min Rain = 0
KQU1 131641Z 36023G33KT 05/M03 A2997 RMK A01 T00541028  RH  056%=      5-min Rain = 0
KQU1 131642Z 35027G42KT 05/M03 A2997 RMK A01 T00541028  RH  055%=      5-min Rain = 0
KQU1 131643Z 00030G39KT 05/M03 A2997 RMK A01 T00541029  RH  055%=      5-min Rain = 0
KQU1 131644Z 00024G37KT 05/M03 A2997 RMK A01 T00541030  RH  055%=      5-min Rain = 0
KQU1 131645Z 36019G27KT 05/M03 A2997 RMK A01 T00541029  RH  055%=      5-min Rain = 0
KQU1 131646Z 36030G44KT 05/M03 A2997 RMK A01 T00541030  RH  054%=      5-min Rain = 0
KQU1 131647Z 36023G32KT 06/M03 A2997 RMK A01 T00551030  RH  054%=      5-min Rain = 0
KQU1 131648Z 36030G39KT 06/M03 A2997 RMK A01 T00551031  RH  054%=      5-min Rain = 0
KQU1 131649Z 00030G40KT 06/M03 A2997 RMK A01 T00551032  RH  054%=      5-min Rain = 0
KQU1 131650Z 01023G38KT 06/M03 A2997 RMK A01 T00551032  RH  054%=      5-min Rain = 0
KQU1 131651Z 00018G27KT 06/M03 A2997 RMK A01 T00551031  RH  054%=      5-min Rain = 0
KQU1 131652Z 35018G24KT 06/M03 A2997 RMK A01 T00551030  RH  054%=      5-min Rain = 0
KQU1 131653Z 36018G27KT 06/M03 A2998 RMK A01 T00551030  RH  054%=      5-min Rain = 0
KQU1 131654Z 35017G22KT 06/M03 A2998 RMK A01 T00551030  RH  054%=      5-min Rain = 0
KQU1 131655Z 36021G32KT 05/M03 A2997 RMK A01 T00541031  RH  054%=      5-min Rain = 0
KQU1 131656Z 35026G37KT 06/M03 A2998 RMK A01 T00551033  RH  053%=      5-min Rain = 0
KQU1 131657Z 35030G37KT 06/M03 A2997 RMK A01 T00551033  RH  053%=      5-min Rain = 0
KQU1 131658Z 00028G43KT 05/M03 A2997 RMK A01 T00541034  RH  053%=      5-min Rain = 0
KQU1 131659Z 35023G33KT 05/M03 A2997 RMK A01 T00541034  RH  053%=      5-min Rain = 0
KQU1 131700Z 00022G30KT 05/M03 A2998 RMK A01 T00541032  RH  054%=      5-min Rain = 0
KQU1 131701Z 35026G34KT 05/M03 A2997 RMK A01 T00541034  RH  053%=      5-min Rain = 0
KQU1 131702Z 36023G32KT 05/M03 A2997 RMK A01 T00541034  RH  053%=      5-min Rain = 0
KQU1 131703Z 36020G34KT 05/M03 A2998 RMK A01 T00541034  RH  053%=      5-min Rain = 0
KQU1 131704Z 35031G37KT 05/M04 A2997 RMK A01 T00541035  RH  052%=      5-min Rain = 0
KQU1 131705Z 35022G33KT 05/M04 A2998 RMK A01 T00541035  RH  053%=      5-min Rain = 0
KQU1 131706Z 35024KT 05/M03 A2998 RMK A01 T00541034  RH  053%=      5-min Rain = 0
KQU1 131707Z 35025G32KT 05/M04 A2997 RMK A01 T00541035  RH  053%=      5-min Rain = 0
KQU1 131708Z 35025G35KT 05/M04 A2997 RMK A01 T00541036  RH  052%=      5-min Rain = 0
KQU1 131709Z 35026G33KT 05/M04 A2998 RMK A01 T00541036  RH  052%=      5-min Rain = 0
KQU1 131710Z 00026G35KT 05/M04 A2998 RMK A01 T00541036  RH  052%=      5-min Rain = 0
KQU1 131711Z 35024G32KT 05/M04 A2998 RMK A01 T00541036  RH  052%=      5-min Rain = 0
KQU1 131712Z 35022G29KT 05/M04 A2998 RMK A01 T00541036  RH  052%=      5-min Rain = 0
KQU1 131713Z 00020G35KT 05/M04 A2998 RMK A01 T00541035  RH  052%=      5-min Rain = 0
KQU1 131714Z 35022G32KT 05/M04 A2998 RMK A01 T00541036  RH  052%=      5-min Rain = 0
KQU1 131715Z 35025G36KT 05/M04 A2997 RMK A01 T00541037  RH  052%=      5-min Rain = 0
KQU1 131716Z 35026G44KT 05/M04 A2997 RMK A01 T00541038  RH  052%=      5-min Rain = 0
KQU1 131717Z 36025G34KT 05/M04 A2997 RMK A01 T00541038  RH  051%=      5-min Rain = 0
KQU1 131718Z 35025G38KT 05/M04 A2997 RMK A01 T00541038  RH  051%=      5-min Rain = 0
KQU1 131719Z 35029G38KT 05/M04 A2997 RMK A01 T00541039  RH  051%=      5-min Rain = 0
KQU1 131720Z 35027G38KT 05/M04 A2997 RMK A01 T00541039  RH  051%=      5-min Rain = 0
KQU1 131721Z 35025G47KT 05/M04 A2997 RMK A01 T00541038  RH  051%=      5-min Rain = 0
KQU1 131722Z 35030G41KT 05/M04 A2997 RMK A01 T00541041  RH  050%=      5-min Rain = 0
KQU1 131723Z 35031G40KT 05/M04 A2997 RMK A01 T00541040  RH  051%=      5-min Rain = 0
KQU1 131724Z 36024G35KT 06/M04 A2997 RMK A01 T00551039  RH  051%=      5-min Rain = 0
KQU1 131725Z 00028G36KT 06/M04 A2997 RMK A01 T00551040  RH  051%=      5-min Rain = 0
KQU1 131726Z 35024G32KT 05/M04 A2997 RMK A01 T00541040  RH  051%=      5-min Rain = 0
KQU1 131727Z 36019G29KT 06/M04 A2998 RMK A01 T00551039  RH  051%=      5-min Rain = 0
KQU1 131728Z 35017G23KT 06/M04 A2998 RMK A01 T00551038  RH  051%=      5-min Rain = 0
KQU1 131729Z 35021G33KT 06/M04 A2997 RMK A01 T00551040  RH  051%=      5-min Rain = 0
KQU1 131730Z 35021G30KT 06/M04 A2997 RMK A01 T00551041  RH  050%=      5-min Rain = 0
KQU1 131731Z 34021G31KT 06/M04 A2997 RMK A01 T00551041  RH  050%=      5-min Rain = 0
KQU1 131732Z 35022G28KT 06/M04 A2997 RMK A01 T00551041  RH  050%=      5-min Rain = 0
KQU1 131733Z 35028G42KT 06/M04 A2997 RMK A01 T00551042  RH  050%=      5-min Rain = 0
KQU1 131734Z 00025G32KT 06/M04 A2997 RMK A01 T00551041  RH  050%=      5-min Rain = 0
KQU1 131735Z 35032KT 06/M04 A2997 RMK A01 T00551042  RH  050%=      5-min Rain = 0
KQU1 131736Z 35024G32KT 06/M04 A2997 RMK A01 T00551042  RH  050%=      5-min Rain = 0
KQU1 131737Z 35024G36KT 06/M04 A2998 RMK A01 T00551042  RH  050%=      5-min Rain = 0
KQU1 131738Z 35026G33KT 06/M04 A2997 RMK A01 T00551043  RH  049%=      5-min Rain = 0
KQU1 131739Z 35018G26KT 06/M04 A2997 RMK A01 T00551042  RH  050%=      5-min Rain = 0
KQU1 131740Z 35022G30KT 06/M04 A2997 RMK A01 T00551042  RH  050%=      5-min Rain = 0
KQU1 131741Z 35025G32KT 06/M04 A2997 RMK A01 T00551043  RH  049%=      5-min Rain = 0
KQU1 131742Z 36028G40KT 06/M04 A2997 RMK A01 T00551043  RH  049%=      5-min Rain = 0
KQU1 131743Z 35028G36KT 06/M04 A2997 RMK A01 T00551044  RH  049%=      5-min Rain = 0
KQU1 131744Z 00026G40KT 06/M04 A2997 RMK A01 T00551043  RH  049%=      5-min Rain = 0
KQU1 131745Z 36022G32KT 06/M04 A2997 RMK A01 T00561043  RH  049%=      5-min Rain = 0
KQU1 131746Z 35030G38KT 06/M05 A2997 RMK A01 T00561045  RH  048%=      5-min Rain = 0
KQU1 131747Z 35025G34KT 06/M04 A2997 RMK A01 T00561044  RH  049%=      5-min Rain = 0
KQU1 131748Z 00024G31KT 06/M04 A2997 RMK A01 T00561043  RH  049%=      5-min Rain = 0
KQU1 131749Z 36028G36KT 06/M04 A2997 RMK A01 T00561044  RH  049%=      5-min Rain = 0
KQU1 131750Z 35024G36KT 06/M04 A2997 RMK A01 T00561044  RH  049%=      5-min Rain = 0
KQU1 131751Z 35025G32KT 06/M04 A2997 RMK A01 T00561044  RH  049%=      5-min Rain = 0
KQU1 131752Z 34028G37KT 06/M04 A2997 RMK A01 T00561044  RH  048%=      5-min Rain = 0
KQU1 131753Z 36027G37KT 06/M05 A2997 RMK A01 T00561045  RH  048%=      5-min Rain = 0
KQU1 131754Z 35023G29KT 06/M04 A2997 RMK A01 T00561044  RH  049%=      5-min Rain = 0
KQU1 131755Z 34022G34KT 06/M04 A2997 RMK A01 T00561043  RH  049%=      5-min Rain = 0
KQU1 131756Z 35031G42KT 06/M05 A2996 RMK A01 T00571045  RH  048%=      5-min Rain = 0
KQU1 131757Z 35029G36KT 06/M05 A2996 RMK A01 T00571045  RH  048%=      5-min Rain = 0
KQU1 131758Z 35031G37KT 06/M05 A2996 RMK A01 T00561045  RH  048%=      5-min Rain = 0
KQU1 131759Z 35029G37KT 06/M05 A2996 RMK A01 T00571045  RH  048%=      5-min Rain = 0
KQU1 131800Z 35026G40KT 06/M05 A2996 RMK A01 T00561045  RH  048%=      5-min Rain = 0
KQU1 131801Z 35028G38KT 06/M05 A2996 RMK A01 T00571045  RH  048%=      5-min Rain = 0
KQU1 131802Z 34027G34KT 06/M05 A2996 RMK A01 T00571046  RH  048%=      5-min Rain = 0
KQU1 131803Z 35023G36KT 06/M04 A2996 RMK A01 T00571044  RH  048%=      5-min Rain = 0
KQU1 131804Z 35023G34KT 06/M04 A2996 RMK A01 T00571044  RH  048%=      5-min Rain = 0
KQU1 131805Z 35030G41KT 06/M05 A2996 RMK A01 T00571045  RH  048%=      5-min Rain = 0
KQU1 131806Z 36028G35KT 06/M04 A2996 RMK A01 T00571044  RH  048%=      5-min Rain = 0
KQU1 131807Z 35025G32KT 06/M04 A2996 RMK A01 T00571044  RH  048%=      5-min Rain = 0
KQU1 131808Z 35021G27KT 06/M04 A2996 RMK A01 T00571044  RH  048%=      5-min Rain = 0
KQU1 131809Z 35024G30KT 06/M04 A2996 RMK A01 T00571043  RH  049%=      5-min Rain = 0
KQU1 131810Z 35023G29KT 06/M04 A2996 RMK A01 T00571044  RH  048%=      5-min Rain = 0
KQU1 131811Z 35030G39KT 06/M04 A2996 RMK A01 T00571044  RH  048%=      5-min Rain = 0
KQU1 131812Z 35019G25KT 06/M04 A2996 RMK A01 T00581043  RH  048%=      5-min Rain = 0
KQU1 131813Z 35019G26KT 06/M04 A2996 RMK A01 T00581042  RH  049%=      5-min Rain = 0
KQU1 131814Z 34033G44KT 06/M04 A2996 RMK A01 T00581044  RH  048%=      5-min Rain = 0
KQU1 131815Z 34032G43KT 06/M05 A2996 RMK A01 T00581046  RH  047%=      5-min Rain = 0
KQU1 131816Z 35026G35KT 06/M04 A2996 RMK A01 T00581044  RH  048%=      5-min Rain = 0
KQU1 131817Z 35031G43KT 06/M05 A2996 RMK A01 T00581045  RH  048%=      5-min Rain = 0
KQU1 131818Z 35031G40KT 06/M04 A2995 RMK A01 T00581044  RH  048%=      5-min Rain = 0
KQU1 131819Z 35033G46KT 06/M05 A2995 RMK A01 T00581045  RH  048%=      5-min Rain = 0
KQU1 131820Z 35031G46KT 06/M04 A2996 RMK A01 T00581044  RH  048%=      5-min Rain = 0
KQU1 131821Z 35030G36KT 06/M05 A2996 RMK A01 T00581045  RH  048%=      5-min Rain = 0
KQU1 131822Z 35029G35KT 06/M05 A2996 RMK A01 T00581045  RH  048%=      5-min Rain = 0
KQU1 131823Z 34036G45KT 06/M05 A2995 RMK A01 T00581045  RH  047%=      5-min Rain = 0
KQU1 131824Z 34032G39KT 06/M05 A2996 RMK A01 T00581046  RH  047%=      5-min Rain = 0
KQU1 131825Z 35036G46KT 06/M05 A2995 RMK A01 T00581046  RH  047%=      5-min Rain = 0
KQU1 131826Z 34035G44KT 06/M05 A2996 RMK A01 T00581046  RH  047%=      5-min Rain = 0
KQU1 131827Z 35029G43KT 06/M04 A2996 RMK A01 T00581044  RH  048%=      5-min Rain = 0
KQU1 131828Z 34025G33KT 06/M04 A2996 RMK A01 T00581044  RH  048%=      5-min Rain = 0
KQU1 131829Z 35031G37KT 06/M05 A2996 RMK A01 T00581045  RH  048%=      5-min Rain = 0
KQU1 131830Z 35032G37KT 06/M04 A2996 RMK A01 T00581044  RH  048%=      5-min Rain = 0
KQU1 131831Z 35026G34KT 06/M04 A2996 RMK A01 T00581044  RH  048%=      5-min Rain = 0
KQU1 131832Z 35025G33KT 06/M04 A2996 RMK A01 T00581044  RH  048%=      5-min Rain = 0
KQU1 131833Z 34025G34KT 06/M04 A2996 RMK A01 T00581044  RH  048%=      5-min Rain = 0
KQU1 131834Z 35028G35KT 06/M04 A2996 RMK A01 T00581043  RH  048%=      5-min Rain = 0
KQU1 131835Z 35026G32KT 06/M04 A2995 RMK A01 T00581043  RH  048%=      5-min Rain = 0
KQU1 131836Z 34032G42KT 06/M04 A2996 RMK A01 T00581044  RH  048%=      5-min Rain = 0
KQU1 131837Z 34035G45KT 06/M04 A2995 RMK A01 T00581043  RH  048%=      5-min Rain = 0
KQU1 131838Z 35033G43KT 06/M04 A2995 RMK A01 T00581044  RH  048%=      5-min Rain = 0
KQU1 131839Z 35030G42KT 06/M04 A2996 RMK A01 T00581043  RH  048%=      5-min Rain = 0
KQU1 131840Z 35029G39KT 06/M04 A2996 RMK A01 T00581043  RH  048%=      5-min Rain = 0
KQU1 131841Z 34026G33KT 06/M04 A2996 RMK A01 T00581044  RH  048%=      5-min Rain = 0
KQU1 131842Z 34030G38KT 06/M04 A2996 RMK A01 T00581044  RH  048%=      5-min Rain = 0
KQU1 131843Z 34030G40KT 06/M04 A2996 RMK A01 T00581044  RH  048%=      5-min Rain = 0
KQU1 131844Z 36023G30KT 06/M04 A2996 RMK A01 T00581043  RH  048%=      5-min Rain = 0
KQU1 131845Z 36024G39KT 06/M04 A2996 RMK A01 T00591041  RH  049%=      5-min Rain = 0
KQU1 131846Z 35033G45KT 06/M04 A2996 RMK A01 T00591042  RH  048%=      5-min Rain = 0
KQU1 131847Z 35035G44KT 06/M04 A2996 RMK A01 T00591044  RH  048%=      5-min Rain = 0
KQU1 131848Z 35031G42KT 06/M04 A2996 RMK A01 T00591043  RH  048%=      5-min Rain = 0
KQU1 131849Z 34029G40KT 06/M04 A2996 RMK A01 T00591042  RH  048%=      5-min Rain = 0
KQU1 131850Z 35023G38KT 06/M04 A2996 RMK A01 T00591042  RH  048%=      5-min Rain = 0
KQU1 131851Z 34028G35KT 06/M04 A2996 RMK A01 T00591043  RH  048%=      5-min Rain = 0
KQU1 131852Z 35031G39KT 06/M04 A2996 RMK A01 T00591044  RH  048%=      5-min Rain = 0
KQU1 131853Z 35028G40KT 06/M04 A2996 RMK A01 T00591043  RH  048%=      5-min Rain = 0
KQU1 131854Z 35028G37KT 06/M04 A2996 RMK A01 T00591043  RH  048%=      5-min Rain = 0
KQU1 131855Z 34032G38KT 06/M04 A2996 RMK A01 T00591044  RH  048%=      5-min Rain = 0
KQU1 131856Z 34030G39KT 06/M04 A2996 RMK A01 T00591044  RH  048%=      5-min Rain = 0
KQU1 131857Z 35031G42KT 06/M04 A2996 RMK A01 T00591044  RH  048%=      5-min Rain = 0
KQU1 131858Z 35035G45KT 06/M04 A2996 RMK A01 T00591044  RH  047%=      5-min Rain = 0
KQU1 131859Z 33031G37KT 06/M05 A2996 RMK A01 T00591045  RH  047%=      5-min Rain = 0
KQU1 131900Z 34028G36KT 06/M04 A2996 RMK A01 T00591043  RH  048%=      5-min Rain = 0
KQU1 131901Z 36032G42KT 06/M04 A2996 RMK A01 T00591043  RH  048%=      5-min Rain = 0
KQU1 131902Z 35028G39KT 06/M04 A2996 RMK A01 T00601042  RH  048%=      5-min Rain = 0
KQU1 131903Z 35021G29KT 06/M04 A2996 RMK A01 T00601042  RH  048%=      5-min Rain = 0
KQU1 131904Z 35023G35KT 06/M04 A2996 RMK A01 T00601041  RH  048%=      5-min Rain = 0
KQU1 131905Z 34022G27KT 06/M04 A2996 RMK A01 T00601040  RH  048%=      5-min Rain = 0
KQU1 131906Z 34024G36KT 06/M04 A2996 RMK A01 T00601042  RH  048%=      5-min Rain = 0
KQU1 131907Z 34026G33KT 06/M04 A2996 RMK A01 T00601043  RH  048%=      5-min Rain = 0
KQU1 131908Z 35027G36KT 06/M04 A2996 RMK A01 T00601042  RH  048%=      5-min Rain = 0
KQU1 131909Z 35030G35KT 06/M04 A2996 RMK A01 T00601043  RH  048%=      5-min Rain = 0
KQU1 131910Z 34031G37KT 06/M04 A2996 RMK A01 T00601043  RH  047%=      5-min Rain = 0
KQU1 131911Z 34031G42KT 06/M04 A2996 RMK A01 T00611044  RH  047%=      5-min Rain = 0
KQU1 131912Z 34027G36KT 06/M04 A2996 RMK A01 T00611043  RH  047%=      5-min Rain = 0
KQU1 131913Z 34027G40KT 06/M04 A2996 RMK A01 T00611043  RH  047%=      5-min Rain = 0
KQU1 131914Z 35028G36KT 06/M04 A2996 RMK A01 T00611043  RH  047%=      5-min Rain = 0
KQU1 131915Z 35033G43KT 06/M04 A2996 RMK A01 T00611044  RH  047%=      5-min Rain = 0
KQU1 131916Z 34028G34KT 06/M04 A2996 RMK A01 T00611044  RH  047%=      5-min Rain = 0
KQU1 131917Z 35032G44KT 06/M04 A2996 RMK A01 T00611044  RH  047%=      5-min Rain = 0
KQU1 131918Z 35028G38KT 06/M05 A2996 RMK A01 T00611045  RH  047%=      5-min Rain = 0
KQU1 131919Z 35028G38KT 06/M05 A2996 RMK A01 T00611046  RH  046%=      5-min Rain = 0
KQU1 131920Z 35022G32KT 06/M04 A2996 RMK A01 T00611044  RH  047%=      5-min Rain = 0
KQU1 131921Z 34024G30KT 06/M04 A2996 RMK A01 T00621044  RH  047%=      5-min Rain = 0
KQU1 131922Z 34027G40KT 06/M05 A2996 RMK A01 T00621046  RH  046%=      5-min Rain = 0
KQU1 131923Z 34028G34KT 06/M05 A2996 RMK A01 T00621046  RH  046%=      5-min Rain = 0
KQU1 131924Z 34029G39KT 06/M05 A2996 RMK A01 T00621045  RH  046%=      5-min Rain = 0
KQU1 131925Z 34026G35KT 06/M05 A2996 RMK A01 T00621046  RH  046%=      5-min Rain = 0
KQU1 131926Z 34026G34KT 06/M05 A2996 RMK A01 T00621046  RH  046%=      5-min Rain = 0
KQU1 131927Z 34026G34KT 06/M05 A2996 RMK A01 T00621046  RH  046%=      5-min Rain = 0
KQU1 131928Z 35032G41KT 06/M05 A2996 RMK A01 T00621047  RH  046%=      5-min Rain = 0
KQU1 131929Z 35027G36KT 06/M05 A2996 RMK A01 T00621047  RH  046%=      5-min Rain = 0
KQU1 131930Z 34028G36KT 06/M05 A2996 RMK A01 T00621046  RH  046%=      5-min Rain = 0
KQU1 131931Z 35028G37KT 06/M05 A2996 RMK A01 T00621048  RH  045%=      5-min Rain = 0
KQU1 131932Z 35024G37KT 06/M05 A2996 RMK A01 T00631047  RH  045%=      5-min Rain = 0
KQU1 131933Z 34026G33KT 06/M05 A2996 RMK A01 T00631047  RH  045%=      5-min Rain = 0
KQU1 131934Z 34027G37KT 06/M05 A2996 RMK A01 T00631047  RH  045%=      5-min Rain = 0
KQU1 131935Z 34030G38KT 06/M05 A2996 RMK A01 T00631049  RH  044%=      5-min Rain = 0
KQU1 131936Z 35030G41KT 06/M05 A2995 RMK A01 T00631049  RH  045%=      5-min Rain = 0
KQU1 131937Z 34029G39KT 06/M05 A2995 RMK A01 T00631049  RH  045%=      5-min Rain = 0
KQU1 131938Z 34028G39KT 06/M05 A2995 RMK A01 T00641049  RH  044%=      5-min Rain = 0
KQU1 131939Z 34028G45KT 06/M05 A2996 RMK A01 T00641049  RH  044%=      5-min Rain = 0
KQU1 131940Z 35032G44KT 06/M05 A2996 RMK A01 T00641051  RH  044%=      5-min Rain = 0
KQU1 131941Z 35034G43KT 06/M05 A2995 RMK A01 T00641050  RH  044%=      5-min Rain = 0
KQU1 131942Z 35031G43KT 06/M05 A2995 RMK A01 T00641050  RH  044%=      5-min Rain = 0
KQU1 131943Z 34032G46KT 07/M05 A2995 RMK A01 T00651051  RH  043%=      5-min Rain = 0
KQU1 131944Z 35031G40KT 07/M05 A2996 RMK A01 T00651051  RH  043%=      5-min Rain = 0
KQU1 131945Z 35031G49KT 07/M05 A2995 RMK A01 T00651051  RH  043%=      5-min Rain = 0
KQU1 131946Z 34035G44KT 07/M05 A2995 RMK A01 T00651053  RH  043%=      5-min Rain = 0
KQU1 131947Z 34027KT 07/M05 A2995 RMK A01 T00651052  RH  043%=      5-min Rain = 0
KQU1 131948Z 35031G41KT 07/M05 A2995 RMK A01 T00651051  RH  043%=      5-min Rain = 0
KQU1 131949Z 35027G36KT 07/M05 A2995 RMK A01 T00661051  RH  043%=      5-min Rain = 0
KQU1 131950Z 34033G44KT 07/M05 A2995 RMK A01 T00661053  RH  042%=      5-min Rain = 0
KQU1 131951Z 34031G38KT 07/M05 A2995 RMK A01 T00661053  RH  042%=      5-min Rain = 0
KQU1 131952Z 35029G41KT 07/M05 A2995 RMK A01 T00661052  RH  043%=      5-min Rain = 0
KQU1 131953Z 35028G36KT 07/M05 A2995 RMK A01 T00661053  RH  042%=      5-min Rain = 0
KQU1 131954Z 35030G43KT 07/M05 A2995 RMK A01 T00671052  RH  042%=      5-min Rain = 0
KQU1 131955Z 36028G38KT 07/M05 A2995 RMK A01 T00671052  RH  042%=      5-min Rain = 0
KQU1 131956Z 35028G38KT 07/M05 A2995 RMK A01 T00671053  RH  042%=      5-min Rain = 0
KQU1 131957Z 34026G32KT 07/M05 A2995 RMK A01 T00671053  RH  042%=      5-min Rain = 0
KQU1 131958Z 34029G38KT 07/M05 A2995 RMK A01 T00671054  RH  041%=      5-min Rain = 0
KQU1 131959Z 34026G34KT 07/M05 A2995 RMK A01 T00681054  RH  042%=      5-min Rain = 0
KQU1 132000Z 34030G38KT 07/M06 A2995 RMK A01 T00681055  RH  041%=      5-min Rain = 0
KQU1 132001Z 34025G33KT 07/M06 A2995 RMK A01 T00681056  RH  041%=      5-min Rain = 0
KQU1 132002Z 35037G57KT 07/M06 A2995 RMK A01 T00681055  RH  041%=      5-min Rain = 0
KQU1 132003Z 34036G46KT 07/M06 A2995 RMK A01 T00681056  RH  041%=      5-min Rain = 0
KQU1 132004Z 35031G39KT 07/M06 A2995 RMK A01 T00681055  RH  041%=      5-min Rain = 0
KQU1 132005Z 35032G39KT 07/M06 A2995 RMK A01 T00691056  RH  041%=      5-min Rain = 0
KQU1 132006Z 35031G47KT 07/M06 A2995 RMK A01 T00691055  RH  041%=      5-min Rain = 0
KQU1 132007Z 34037G48KT 07/M06 A2995 RMK A01 T00691057  RH  040%=      5-min Rain = 0
KQU1 132008Z 34037G45KT 07/M06 A2995 RMK A01 T00691058  RH  040%=      5-min Rain = 0
KQU1 132009Z 35030G37KT 07/M06 A2995 RMK A01 T00691058  RH  040%=      5-min Rain = 0
KQU1 132010Z 34033G45KT 07/M06 A2995 RMK A01 T00691057  RH  040%=      5-min Rain = 0
KQU1 132011Z 35027G41KT 07/M06 A2995 RMK A01 T00691057  RH  040%=      5-min Rain = 0
KQU1 132012Z 34035G41KT 07/M06 A2994 RMK A01 T00691058  RH  040%=      5-min Rain = 0
KQU1 132013Z 34026G33KT 07/M06 A2995 RMK A01 T00691057  RH  040%=      5-min Rain = 0
KQU1 132014Z 34022G29KT 07/M05 A2995 RMK A01 T00691054  RH  041%=      5-min Rain = 0
KQU1 132015Z 35020G28KT 07/M05 A2995 RMK A01 T00701054  RH  041%=      5-min Rain = 0
KQU1 132016Z 34029G37KT 07/M06 A2995 RMK A01 T00701056  RH  041%=      5-min Rain = 0
KQU1 132017Z 34026G34KT 07/M06 A2995 RMK A01 T00701056  RH  040%=      5-min Rain = 0
KQU1 132018Z 35025G32KT 07/M06 A2995 RMK A01 T00701055  RH  041%=      5-min Rain = 0
KQU1 132019Z 35022G29KT 07/M05 A2995 RMK A01 T00701054  RH  041%=      5-min Rain = 0
KQU1 132020Z 34026G32KT 07/M06 A2995 RMK A01 T00701055  RH  041%=      5-min Rain = 0
KQU1 132021Z 35026G36KT 07/M05 A2995 RMK A01 T00691054  RH  041%=      5-min Rain = 0
KQU1 132022Z 34025G31KT 07/M06 A2995 RMK A01 T00691055  RH  041%=      5-min Rain = 0
KQU1 132023Z 34030G39KT 07/M06 A2995 RMK A01 T00691056  RH  040%=      5-min Rain = 0
KQU1 132024Z 34028G42KT 07/M06 A2995 RMK A01 T00691057  RH  040%=      5-min Rain = 0
KQU1 132025Z 34037G44KT 07/M06 A2995 RMK A01 T00691058  RH  040%=      5-min Rain = 0
KQU1 132026Z 34033G45KT 07/M06 A2995 RMK A01 T00681058  RH  040%=      5-min Rain = 0
KQU1 132027Z 34026G34KT 07/M06 A2995 RMK A01 T00681057  RH  040%=      5-min Rain = 0
KQU1 132028Z 35030G40KT 07/M06 A2995 RMK A01 T00681057  RH  040%=      5-min Rain = 0
KQU1 132029Z 35026G34KT 07/M06 A2995 RMK A01 T00681056  RH  041%=      5-min Rain = 0
KQU1 132030Z 35028G40KT 07/M06 A2995 RMK A01 T00681055  RH  041%=      5-min Rain = 0
KQU1 132031Z 34027G36KT 07/M06 A2995 RMK A01 T00681056  RH  041%=      5-min Rain = 0
KQU1 132032Z 35026G37KT 07/M06 A2995 RMK A01 T00681057  RH  040%=      5-min Rain = 0
KQU1 132033Z 35024G30KT 07/M06 A2995 RMK A01 T00691056  RH  041%=      5-min Rain = 0
KQU1 132034Z 35029G43KT 07/M06 A2995 RMK A01 T00691056  RH  041%=      5-min Rain = 0
KQU1 132035Z 34034G47KT 07/M06 A2995 RMK A01 T00691058  RH  040%=      5-min Rain = 0
KQU1 132036Z 34033G41KT 07/M06 A2995 RMK A01 T00681058  RH  040%=      5-min Rain = 0
KQU1 132037Z 34028G38KT 07/M06 A2995 RMK A01 T00681058  RH  040%=      5-min Rain = 0
KQU1 132038Z 35024G31KT 07/M06 A2995 RMK A01 T00681057  RH  040%=      5-min Rain = 0
KQU1 132039Z 35020G26KT 07/M06 A2995 RMK A01 T00681055  RH  041%=      5-min Rain = 0
KQU1 132040Z 35021G33KT 07/M06 A2995 RMK A01 T00681055  RH  041%=      5-min Rain = 0
KQU1 132041Z 35023G33KT 07/M06 A2995 RMK A01 T00681056  RH  041%=      5-min Rain = 0
KQU1 132042Z 34021G28KT 07/M06 A2995 RMK A01 T00681055  RH  041%=      5-min Rain = 0
KQU1 132043Z 35022G32KT 07/M06 A2995 RMK A01 T00681056  RH  041%=      5-min Rain = 0
KQU1 132044Z 34020G26KT 07/M06 A2995 RMK A01 T00681055  RH  041%=      5-min Rain = 0
KQU1 132045Z 34024G35KT 07/M06 A2995 RMK A01 T00691058  RH  040%=      5-min Rain = 0
KQU1 132046Z 35027G42KT 07/M06 A2995 RMK A01 T00691058  RH  040%=      5-min Rain = 0
KQU1 132047Z 34033KT 07/M06 A2995 RMK A01 T00691060  RH  039%=      5-min Rain = 0
KQU1 132048Z 34038G43KT 07/M06 A2995 RMK A01 T00691062  RH  039%=      5-min Rain = 0
KQU1 132049Z 35032G39KT 07/M06 A2995 RMK A01 T00691060  RH  039%=      5-min Rain = 0
KQU1 132050Z 35030G41KT 07/M06 A2995 RMK A01 T00691061  RH  039%=      5-min Rain = 0
KQU1 132051Z 35030G42KT 07/M06 A2995 RMK A01 T00691061  RH  039%=      5-min Rain = 0
KQU1 132052Z 34036G47KT 07/M06 A2995 RMK A01 T00701064  RH  038%=      5-min Rain = 0
KQU1 132053Z 35030G41KT 07/M06 A2995 RMK A01 T00701064  RH  038%=      5-min Rain = 0
KQU1 132054Z 35027G35KT 07/M06 A2995 RMK A01 T00701062  RH  038%=      5-min Rain = 0
KQU1 132055Z 35028G38KT 07/M06 A2995 RMK A01 T00701062  RH  039%=      5-min Rain = 0
KQU1 132056Z 34033G42KT 07/M06 A2995 RMK A01 T00701063  RH  038%=      5-min Rain = 0
KQU1 132057Z 34029G38KT 07/M06 A2995 RMK A01 T00701063  RH  038%=      5-min Rain = 0
KQU1 132058Z 34025G30KT 07/M06 A2995 RMK A01 T00701062  RH  038%=      5-min Rain = 0
KQU1 132059Z 35029G42KT 07/M06 A2995 RMK A01 T00701062  RH  038%=      5-min Rain = 0
KQU1 132100Z 34030G40KT 07/M06 A2995 RMK A01 T00701063  RH  038%=      5-min Rain = 0
KQU1 132101Z 35030G41KT 07/M06 A2995 RMK A01 T00701063  RH  038%=      5-min Rain = 0
KQU1 132102Z 35027G35KT 07/M06 A2995 RMK A01 T00701062  RH  038%=      5-min Rain = 0
KQU1 132103Z 34027G34KT 07/M06 A2995 RMK A01 T00701063  RH  038%=      5-min Rain = 0
KQU1 132104Z 34033G40KT 07/M06 A2995 RMK A01 T00701064  RH  038%=      5-min Rain = 0
KQU1 132105Z 34033G41KT 07/M06 A2995 RMK A01 T00701064  RH  038%=      5-min Rain = 0
KQU1 132106Z 34032G40KT 07/M07 A2995 RMK A01 T00701065  RH  038%=      5-min Rain = 0
KQU1 132107Z 34029G35KT 07/M06 A2995 RMK A01 T00701064  RH  038%=      5-min Rain = 0
KQU1 132108Z 34027G35KT 07/M06 A2995 RMK A01 T00701064  RH  038%=      5-min Rain = 0
KQU1 132109Z 36024G32KT 07/M06 A2995 RMK A01 T00701062  RH  039%=      5-min Rain = 0
KQU1 132110Z 35029G39KT 07/M06 A2995 RMK A01 T00701063  RH  038%=      5-min Rain = 0
KQU1 132111Z 36031G48KT 07/M06 A2995 RMK A01 T00701063  RH  038%=      5-min Rain = 0
KQU1 132112Z 36029G41KT 07/M06 A2995 RMK A01 T00701063  RH  038%=      5-min Rain = 0
KQU1 132113Z 34025G30KT 07/M06 A2996 RMK A01 T00701062  RH  039%=      5-min Rain = 0
KQU1 132114Z 35031G43KT 07/M06 A2995 RMK A01 T00701062  RH  038%=      5-min Rain = 0
KQU1 132115Z 34026G36KT 07/M06 A2995 RMK A01 T00701062  RH  038%=      5-min Rain = 0
KQU1 132116Z 34025G37KT 07/M06 A2995 RMK A01 T00701063  RH  038%=      5-min Rain = 0
KQU1 132117Z 34036G44KT 07/M06 A2995 RMK A01 T00701064  RH  038%=      5-min Rain = 0
KQU1 132118Z 35024G33KT 07/M06 A2996 RMK A01 T00701062  RH  038%=      5-min Rain = 0
KQU1 132119Z 35027G32KT 07/M06 A2995 RMK A01 T00701062  RH  039%=      5-min Rain = 0
KQU1 132120Z 35031G38KT 07/M06 A2995 RMK A01 T00701063  RH  038%=      5-min Rain = 0
KQU1 132121Z 35026G36KT 07/M06 A2995 RMK A01 T00701062  RH  039%=      5-min Rain = 0
KQU1 132122Z 35024G31KT 07/M06 A2996 RMK A01 T00701061  RH  039%=      5-min Rain = 0
KQU1 132123Z 35023G33KT 07/M06 A2996 RMK A01 T00701061  RH  039%=      5-min Rain = 0
KQU1 132124Z 35023G30KT 07/M06 A2996 RMK A01 T00701061  RH  039%=      5-min Rain = 0
KQU1 132125Z 34033G42KT 07/M06 A2996 RMK A01 T00701064  RH  038%=      5-min Rain = 0
KQU1 132126Z 35033G45KT 07/M06 A2996 RMK A01 T00701064  RH  038%=      5-min Rain = 0
KQU1 132127Z 35032G41KT 07/M06 A2996 RMK A01 T00701064  RH  038%=      5-min Rain = 0
KQU1 132128Z 35033G41KT 07/M06 A2996 RMK A01 T00701063  RH  038%=      5-min Rain = 0
KQU1 132129Z 35031G36KT 07/M06 A2996 RMK A01 T00701064  RH  038%=      5-min Rain = 0
KQU1 132130Z 35027G34KT 07/M06 A2996 RMK A01 T00701064  RH  038%=      5-min Rain = 0
KQU1 132131Z 34029G44KT 07/M06 A2996 RMK A01 T00701064  RH  038%=      5-min Rain = 0
KQU1 132132Z 35037G47KT 07/M06 A2996 RMK A01 T00701064  RH  038%=      5-min Rain = 0
KQU1 132133Z 34033G42KT 07/M07 A2996 RMK A01 T00701065  RH  038%=      5-min Rain = 0
KQU1 132134Z 34028G36KT 07/M07 A2996 RMK A01 T00701065  RH  038%=      5-min Rain = 0
KQU1 132135Z 35025G34KT 07/M06 A2996 RMK A01 T00701063  RH  038%=      5-min Rain = 0
KQU1 132136Z 35030G40KT 07/M06 A2996 RMK A01 T00701063  RH  038%=      5-min Rain = 0
KQU1 132137Z 34033G42KT 07/M06 A2996 RMK A01 T00701064  RH  038%=      5-min Rain = 0
KQU1 132138Z 35025G41KT 07/M06 A2997 RMK A01 T00701062  RH  039%=      5-min Rain = 0
KQU1 132139Z 35033G41KT 07/M06 A2996 RMK A01 T00701062  RH  038%=      5-min Rain = 0
KQU1 132140Z 36027G38KT 07/M06 A2996 RMK A01 T00701061  RH  039%=      5-min Rain = 0
KQU1 132141Z 35031G39KT 07/M06 A2997 RMK A01 T00701062  RH  038%=      5-min Rain = 0
KQU1 132142Z 35033G43KT 07/M06 A2997 RMK A01 T00701062  RH  038%=      5-min Rain = 0
KQU1 132143Z 35030G37KT 07/M06 A2997 RMK A01 T00701062  RH  039%=      5-min Rain = 0
KQU1 132144Z 35021G29KT 07/M06 A2997 RMK A01 T00701061  RH  039%=      5-min Rain = 0
KQU1 132145Z 35030G38KT 07/M06 A2997 RMK A01 T00701061  RH  039%=      5-min Rain = 0
KQU1 132146Z 35029G41KT 07/M06 A2997 RMK A01 T00701062  RH  038%=      5-min Rain = 0
KQU1 132147Z 35031G39KT 07/M06 A2997 RMK A01 T00701063  RH  038%=      5-min Rain = 0
KQU1 132148Z 35025G30KT 07/M06 A2997 RMK A01 T00701062  RH  038%=      5-min Rain = 0
KQU1 132149Z 35026G36KT 07/M06 A2997 RMK A01 T00701060  RH  039%=      5-min Rain = 0
KQU1 132150Z 35027G37KT 07/M06 A2997 RMK A01 T00701060  RH  039%=      5-min Rain = 0
KQU1 132151Z 34030G38KT 07/M06 A2998 RMK A01 T00701060  RH  039%=      5-min Rain = 0
KQU1 132152Z 35031G37KT 07/M06 A2997 RMK A01 T00701062  RH  038%=      5-min Rain = 0
KQU1 132153Z 34027G34KT 07/M06 A2997 RMK A01 T00701061  RH  039%=      5-min Rain = 0
KQU1 132154Z 34025G36KT 07/M06 A2998 RMK A01 T00701061  RH  039%=      5-min Rain = 0
KQU1 132155Z 34030G38KT 07/M06 A2998 RMK A01 T00701061  RH  039%=      5-min Rain = 0
KQU1 132156Z 35030G37KT 07/M06 A2998 RMK A01 T00701062  RH  038%=      5-min Rain = 0
KQU1 132157Z 34030G39KT 07/M06 A2998 RMK A01 T00701061  RH  039%=      5-min Rain = 0
KQU1 132158Z 35024G33KT 07/M06 A2998 RMK A01 T00701059  RH  039%=      5-min Rain = 0
KQU1 132159Z 35022G31KT 07/M06 A2998 RMK A01 T00701058  RH  039%=      5-min Rain = 0
KQU1 132200Z 00022G32KT 07/M06 A2998 RMK A01 T00701058  RH  040%=      5-min Rain = 0
KQU1 132201Z 35025G37KT 07/M06 A2998 RMK A01 T00701058  RH  039%=      5-min Rain = 0
KQU1 132202Z 35024G33KT 07/M06 A2998 RMK A01 T00701058  RH  040%=      5-min Rain = 0
KQU1 132203Z 35025G31KT 07/M06 A2998 RMK A01 T00701060  RH  039%=      5-min Rain = 0
KQU1 132204Z 34029G37KT 07/M06 A2998 RMK A01 T00711061  RH  039%=      5-min Rain = 0
KQU1 132205Z 36026G31KT 07/M06 A2998 RMK A01 T00711061  RH  039%=      5-min Rain = 0
KQU1 132206Z 35027G34KT 07/M06 A2998 RMK A01 T00711061  RH  039%=      5-min Rain = 0
KQU1 132207Z 34029G35KT 07/M06 A2998 RMK A01 T00711061  RH  038%=      5-min Rain = 0
KQU1 132208Z 36027G34KT 07/M06 A2998 RMK A01 T00711062  RH  038%=      5-min Rain = 0
KQU1 132209Z 35024G34KT 07/M06 A2998 RMK A01 T00721061  RH  038%=      5-min Rain = 0
KQU1 132210Z 35024KT 07/M06 A2998 RMK A01 T00721062  RH  038%=      5-min Rain = 0
KQU1 132211Z 34023G31KT 07/M06 A2998 RMK A01 T00721062  RH  038%=      5-min Rain = 0
KQU1 132212Z 35029G40KT 07/M06 A2998 RMK A01 T00721063  RH  038%=      5-min Rain = 0
KQU1 132213Z 35027G37KT 07/M06 A2998 RMK A01 T00721062  RH  038%=      5-min Rain = 0
KQU1 132214Z 35035G45KT 07/M07 A2998 RMK A01 T00721065  RH  037%=      5-min Rain = 0
KQU1 132215Z 34029G36KT 07/M06 A2998 RMK A01 T00721064  RH  037%=      5-min Rain = 0
KQU1 132216Z 34030G44KT 07/M07 A2998 RMK A01 T00721065  RH  037%=      5-min Rain = 0
KQU1 132217Z 34027G36KT 07/M07 A2998 RMK A01 T00721065  RH  037%=      5-min Rain = 0
KQU1 132218Z 34030G44KT 07/M07 A2998 RMK A01 T00731066  RH  037%=      5-min Rain = 0
KQU1 132219Z 34032G46KT 07/M07 A2998 RMK A01 T00731067  RH  036%=      5-min Rain = 0
KQU1 132220Z 35028G38KT 07/M07 A2999 RMK A01 T00731067  RH  036%=      5-min Rain = 0
KQU1 132221Z 34027G39KT 07/M07 A2999 RMK A01 T00731066  RH  037%=      5-min Rain = 0
KQU1 132222Z 35028G37KT 07/M07 A2999 RMK A01 T00731066  RH  036%=      5-min Rain = 0
KQU1 132223Z 35018G24KT 07/M07 A2999 RMK A01 T00731065  RH  037%=      5-min Rain = 0
KQU1 132224Z 34025G35KT 07/M07 A2999 RMK A01 T00731066  RH  036%=      5-min Rain = 0
KQU1 132225Z 34028G36KT 07/M07 A2999 RMK A01 T00741068  RH  036%=      5-min Rain = 0
KQU1 132226Z 34025G32KT 07/M07 A2999 RMK A01 T00741068  RH  036%=      5-min Rain = 0
KQU1 132227Z 35021G28KT 07/M07 A2999 RMK A01 T00741066  RH  036%=      5-min Rain = 0
KQU1 132228Z 34031G46KT 07/M07 A2999 RMK A01 T00741068  RH  036%=      5-min Rain = 0
KQU1 132229Z 35036G44KT 07/M07 A2999 RMK A01 T00741070  RH  035%=      5-min Rain = 0
KQU1 132230Z 35029G37KT 08/M07 A2999 RMK A01 T00751071  RH  035%=      5-min Rain = 0
KQU1 132231Z 35029G41KT 08/M07 A2999 RMK A01 T00751070  RH  035%=      5-min Rain = 0
KQU1 132232Z 34030G38KT 08/M07 A2999 RMK A01 T00751071  RH  035%=      5-min Rain = 0
KQU1 132233Z 35033G41KT 08/M07 A2999 RMK A01 T00751074  RH  034%=      5-min Rain = 0
KQU1 132234Z 34022G33KT 08/M07 A2999 RMK A01 T00751073  RH  034%=      5-min Rain = 0
KQU1 132235Z 33034G43KT 08/M08 A2999 RMK A01 T00761075  RH  034%=      5-min Rain = 0
KQU1 132236Z 35026G38KT 08/M07 A2999 RMK A01 T00761073  RH  034%=      5-min Rain = 0
KQU1 132237Z 34028G35KT 08/M07 A2999 RMK A01 T00761073  RH  034%=      5-min Rain = 0
KQU1 132238Z 34021G31KT 08/M07 A2999 RMK A01 T00761072  RH  034%=      5-min Rain = 0
KQU1 132239Z 36016G23KT 08/M07 A2999 RMK A01 T00751069  RH  035%=      5-min Rain = 0
KQU1 132240Z 34022G35KT 08/M07 A2999 RMK A01 T00751070  RH  035%=      5-min Rain = 0
KQU1 132241Z 35025G32KT 08/M07 A2999 RMK A01 T00751071  RH  035%=      5-min Rain = 0
KQU1 132242Z 35022G32KT 08/M07 A30 RMK A01 T00751070  RH  035%=      5-min Rain = 0
KQU1 132243Z 34020G29KT 08/M07 A30 RMK A01 T00751069  RH  035%=      5-min Rain = 0
KQU1 132244Z 34021G29KT 08/M07 A30 RMK A01 T00751071  RH  035%=      5-min Rain = 0
KQU1 132245Z 35025G35KT 08/M07 A30 RMK A01 T00751071  RH  035%=      5-min Rain = 0
KQU1 132246Z 34026G35KT 08/M07 A2999 RMK A01 T00751073  RH  034%=      5-min Rain = 0
KQU1 132247Z 34033G41KT 08/M07 A2999 RMK A01 T00761074  RH  034%=      5-min Rain = 0
KQU1 132248Z 35028G36KT 08/M07 A2999 RMK A01 T00761074  RH  034%=      5-min Rain = 0
KQU1 132249Z 34035G45KT 08/M08 A2999 RMK A01 T00761075  RH  033%=      5-min Rain = 0
KQU1 132250Z 34026G33KT 08/M08 A30 RMK A01 T00761075  RH  033%=      5-min Rain = 0
KQU1 132251Z 34025G33KT 08/M08 A30 RMK A01 T00761075  RH  033%=      5-min Rain = 0
KQU1 132252Z 35027G38KT 08/M07 A30 RMK A01 T00761074  RH  034%=      5-min Rain = 0
KQU1 132253Z 34029G40KT 08/M07 A30 RMK A01 T00771074  RH  033%=      5-min Rain = 0
KQU1 132254Z 35034G43KT 08/M08 A30 RMK A01 T00771075  RH  033%=      5-min Rain = 0
KQU1 132255Z 34030G39KT 08/M08 A30 RMK A01 T00771076  RH  033%=      5-min Rain = 0
KQU1 132256Z 35027G36KT 08/M07 A30 RMK A01 T00771074  RH  033%=      5-min Rain = 0
KQU1 132257Z 35023G35KT 08/M07 A30 RMK A01 T00771072  RH  034%=      5-min Rain = 0
KQU1 132258Z 35027G37KT 08/M07 A30 RMK A01 T00771074  RH  033%=      5-min Rain = 0
KQU1 132259Z 34030KT 08/M07 A30 RMK A01 T00771074  RH  033%=      5-min Rain = 0
KQU1 132300Z 35024G30KT 08/M07 A30 RMK A01 T00771074  RH  033%=      5-min Rain = 0
KQU1 132301Z 35019G26KT 08/M07 A30 RMK A01 T00771072  RH  034%=      5-min Rain = 0
KQU1 132302Z 35020KT 08/M07 A30 RMK A01 T00771072  RH  034%=      5-min Rain = 0
KQU1 132303Z 36017G24KT 08/M07 A3001 RMK A01 T00761072  RH  034%=      5-min Rain = 0
KQU1 132304Z 35018G25KT 08/M07 A3001 RMK A01 T00761073  RH  034%=      5-min Rain = 0
KQU1 132305Z 35022G29KT 08/M07 A3001 RMK A01 T00771074  RH  034%=      5-min Rain = 0
KQU1 132306Z 34021G28KT 08/M07 A3001 RMK A01 T00771074  RH  034%=      5-min Rain = 0
KQU1 132307Z 35025G31KT 08/M08 A3001 RMK A01 T00771075  RH  033%=      5-min Rain = 0
KQU1 132308Z 36021G30KT 08/M07 A3001 RMK A01 T00771074  RH  033%=      5-min Rain = 0
KQU1 132309Z 35026G35KT 08/M07 A3001 RMK A01 T00771074  RH  033%=      5-min Rain = 0
KQU1 132310Z 34027G39KT 08/M08 A3001 RMK A01 T00771075  RH  033%=      5-min Rain = 0
KQU1 132311Z 35024G30KT 08/M08 A3001 RMK A01 T00771076  RH  033%=      5-min Rain = 0
KQU1 132312Z 34021G32KT 08/M07 A3001 RMK A01 T00771074  RH  033%=      5-min Rain = 0
KQU1 132313Z 36019G28KT 08/M07 A3001 RMK A01 T00771074  RH  033%=      5-min Rain = 0
KQU1 132314Z 35024G33KT 08/M08 A3001 RMK A01 T00771075  RH  033%=      5-min Rain = 0
KQU1 132315Z 35018G24KT 08/M07 A3001 RMK A01 T00771074  RH  033%=      5-min Rain = 0
KQU1 132316Z 34023G30KT 08/M07 A3001 RMK A01 T00771074  RH  033%=      5-min Rain = 0
KQU1 132317Z 34024G31KT 08/M08 A3001 RMK A01 T00771077  RH  033%=      5-min Rain = 0
KQU1 132318Z 34026G32KT 08/M08 A3001 RMK A01 T00781078  RH  032%=      5-min Rain = 0
KQU1 132319Z 34024G31KT 08/M08 A3001 RMK A01 T00781078  RH  032%=      5-min Rain = 0
KQU1 132320Z 35021KT 08/M08 A3002 RMK A01 T00781078  RH  032%=      5-min Rain = 0
KQU1 132321Z 35019G27KT 08/M08 A3002 RMK A01 T00781077  RH  032%=      5-min Rain = 0
KQU1 132322Z 35017G22KT 08/M08 A3002 RMK A01 T00771077  RH  033%=      5-min Rain = 0
KQU1 132323Z 01024G35KT 08/M08 A3002 RMK A01 T00771077  RH  033%=      5-min Rain = 0
KQU1 132324Z 35021G33KT 08/M08 A3002 RMK A01 T00771076  RH  033%=      5-min Rain = 0
KQU1 132325Z 35026G36KT 08/M08 A3002 RMK A01 T00771076  RH  033%=      5-min Rain = 0
KQU1 132326Z 34028G38KT 08/M08 A3001 RMK A01 T00771078  RH  032%=      5-min Rain = 0
KQU1 132327Z 36021G33KT 08/M08 A3002 RMK A01 T00771077  RH  033%=      5-min Rain = 0
KQU1 132328Z 36023G38KT 08/M08 A3002 RMK A01 T00771076  RH  033%=      5-min Rain = 0
KQU1 132329Z 35027G35KT 08/M08 A3002 RMK A01 T00771078  RH  032%=      5-min Rain = 0
KQU1 132330Z 34022G31KT 08/M08 A3002 RMK A01 T00771078  RH  032%=      5-min Rain = 0
KQU1 132331Z 34029G41KT 08/M08 A3002 RMK A01 T00771080  RH  032%=      5-min Rain = 0
KQU1 132332Z 34026G36KT 08/M08 A3002 RMK A01 T00771078  RH  032%=      5-min Rain = 0
KQU1 132333Z 34029G39KT 08/M08 A3002 RMK A01 T00771079  RH  032%=      5-min Rain = 0
KQU1 132334Z 34033G40KT 08/M08 A3002 RMK A01 T00771079  RH  032%=      5-min Rain = 0
KQU1 132335Z 35028G36KT 08/M08 A3002 RMK A01 T00771078  RH  032%=      5-min Rain = 0
KQU1 132336Z 34026G34KT 08/M08 A3003 RMK A01 T00771079  RH  032%=      5-min Rain = 0
KQU1 132337Z 34026G35KT 08/M08 A3003 RMK A01 T00761078  RH  033%=      5-min Rain = 0
KQU1 132338Z 35031G38KT 08/M08 A3003 RMK A01 T00761077  RH  033%=      5-min Rain = 0
KQU1 132339Z 35027G38KT 08/M08 A3003 RMK A01 T00761076  RH  033%=      5-min Rain = 0
KQU1 132340Z 35025G34KT 08/M08 A3003 RMK A01 T00761076  RH  033%=      5-min Rain = 0
KQU1 132341Z 35031G38KT 08/M08 A3003 RMK A01 T00751078  RH  033%=      5-min Rain = 0
KQU1 132342Z 36016G22KT 08/M08 A3004 RMK A01 T00751075  RH  034%=      5-min Rain = 0
KQU1 132343Z 00019G24KT 08/M07 A3004 RMK A01 T00751074  RH  034%=      5-min Rain = 0
KQU1 132344Z 35019G24KT 07/M07 A3004 RMK A01 T00741074  RH  034%=      5-min Rain = 0
KQU1 132345Z 34026G32KT 07/M08 A3004 RMK A01 T00741076  RH  033%=      5-min Rain = 0
KQU1 132346Z 34031G36KT 07/M08 A3004 RMK A01 T00741077  RH  033%=      5-min Rain = 0
KQU1 132347Z 35033G43KT 07/M08 A3004 RMK A01 T00741077  RH  033%=      5-min Rain = 0
KQU1 132348Z 35030G36KT 07/M08 A3004 RMK A01 T00741077  RH  033%=      5-min Rain = 0
KQU1 132349Z 34031G42KT 07/M08 A3004 RMK A01 T00741078  RH  033%=      5-min Rain = 0
KQU1 132350Z 35031G40KT 07/M08 A3004 RMK A01 T00741077  RH  033%=      5-min Rain = 0
KQU1 132351Z 36024G37KT 07/M08 A3004 RMK A01 T00741076  RH  034%=      5-min Rain = 0
KQU1 132352Z 35028G37KT 07/M08 A3005 RMK A01 T00731076  RH  034%=      5-min Rain = 0
KQU1 132353Z 35027G38KT 07/M08 A3005 RMK A01 T00731077  RH  033%=      5-min Rain = 0
KQU1 132354Z 35027G34KT 07/M08 A3005 RMK A01 T00731078  RH  033%=      5-min Rain = 0
KQU1 132355Z 35031G39KT 07/M08 A3005 RMK A01 T00731079  RH  033%=      5-min Rain = 0
KQU1 132356Z 35025G35KT 07/M08 A3005 RMK A01 T00731077  RH  033%=      5-min Rain = 0
KQU1 132357Z 35021G32KT 07/M08 A3005 RMK A01 T00731077  RH  034%=      5-min Rain = 0
KQU1 132358Z 35019G29KT 07/M08 A3005 RMK A01 T00721077  RH  034%=      5-min Rain = 0
KQU1 132359Z 35023G31KT 07/M08 A3005 RMK A01 T00721077  RH  034%=      5-min Rain = 0
KQU1 140000Z 35022G29KT 07/M08 A3005 RMK A01 T00721077  RH  034%=      5-min Rain = 0
KQU1 140001Z 35018G26KT 07/M08 A3006 RMK A01 T00721076  RH  034%=      5-min Rain = 0
KQU1 140002Z 35020G29KT 07/M08 A3005 RMK A01 T00721077  RH  034%=      5-min Rain = 0
KQU1 140003Z 35022G32KT 07/M08 A3006 RMK A01 T00721077  RH  034%=      5-min Rain = 0
KQU1 140004Z 35024G30KT 07/M08 A3006 RMK A01 T00721078  RH  034%=      5-min Rain = 0
KQU1 140005Z 35023G30KT 07/M08 A3006 RMK A01 T00721079  RH  033%=      5-min Rain = 0
KQU1 140006Z 34015KT 07/M08 A3006 RMK A01 T00721076  RH  034%=      5-min Rain = 0
KQU1 140007Z 35020G30KT 07/M08 A3006 RMK A01 T00711077  RH  034%=      5-min Rain = 0
KQU1 140008Z 35021G29KT 07/M08 A3006 RMK A01 T00711078  RH  034%=      5-min Rain = 0
KQU1 140009Z 35028G43KT 07/M08 A3006 RMK A01 T00711080  RH  033%=      5-min Rain = 0
KQU1 140010Z 35021G32KT 07/M08 A3005 RMK A01 T00711079  RH  033%=      5-min Rain = 0
KQU1 140011Z 35019G29KT 07/M08 A3006 RMK A01 T00711078  RH  034%=      5-min Rain = 0
KQU1 140012Z 34026G33KT 07/M08 A3006 RMK A01 T00711081  RH  033%=      5-min Rain = 0
KQU1 140013Z 35018G29KT 07/M08 A3006 RMK A01 T00711079  RH  034%=      5-min Rain = 0
KQU1 140014Z 34022G31KT 07/M08 A3006 RMK A01 T00711080  RH  033%=      5-min Rain = 0
KQU1 140015Z 35019G28KT 07/M08 A3006 RMK A01 T00711080  RH  033%=      5-min Rain = 0
KQU1 140016Z 35017G24KT 07/M08 A3006 RMK A01 T00711080  RH  033%=      5-min Rain = 0
KQU1 140017Z 35019G27KT 07/M08 A3005 RMK A01 T00701079  RH  034%=      5-min Rain = 0
KQU1 140018Z 35022G28KT 07/M08 A3006 RMK A01 T00701080  RH  033%=      5-min Rain = 0
KQU1 140019Z 34022G30KT 07/M08 A3006 RMK A01 T00701081  RH  033%=      5-min Rain = 0
KQU1 140020Z 35024G31KT 07/M08 A3006 RMK A01 T00701082  RH  033%=      5-min Rain = 0
KQU1 140021Z 35026G35KT 07/M08 A3006 RMK A01 T00701082  RH  033%=      5-min Rain = 0
KQU1 140022Z 35027G32KT 07/M08 A3006 RMK A01 T00711083  RH  032%=      5-min Rain = 0
KQU1 140023Z 35021G26KT 07/M08 A3006 RMK A01 T00701082  RH  033%=      5-min Rain = 0
KQU1 140024Z 35019G28KT 07/M08 A3006 RMK A01 T00701082  RH  033%=      5-min Rain = 0
KQU1 140025Z 34020G28KT 07/M08 A3006 RMK A01 T00701083  RH  033%=      5-min Rain = 0
KQU1 140026Z 34022G28KT 07/M08 A3006 RMK A01 T00701082  RH  033%=      5-min Rain = 0
KQU1 140027Z 35021G27KT 07/M08 A3006 RMK A01 T00701083  RH  033%=      5-min Rain = 0
KQU1 140028Z 34025G36KT 07/M08 A3006 RMK A01 T00701083  RH  033%=      5-min Rain = 0
KQU1 140029Z 34028G36KT 07/M09 A3006 RMK A01 T00701085  RH  032%=      5-min Rain = 0
KQU1 140030Z 35025G32KT 07/M08 A3006 RMK A01 T00701084  RH  032%=      5-min Rain = 0
KQU1 140031Z 34024G33KT 07/M09 A3006 RMK A01 T00701085  RH  032%=      5-min Rain = 0
KQU1 140032Z 35022G31KT 07/M09 A3006 RMK A01 T00701085  RH  032%=      5-min Rain = 0
KQU1 140033Z 34021G28KT 07/M09 A3006 RMK A01 T00691085  RH  032%=      5-min Rain = 0
KQU1 140034Z 34021G26KT 07/M09 A3006 RMK A01 T00691086  RH  032%=      5-min Rain = 0
KQU1 140035Z 34023G29KT 07/M09 A3006 RMK A01 T00691085  RH  033%=      5-min Rain = 0
KQU1 140036Z 35022G30KT 07/M09 A3006 RMK A01 T00691086  RH  032%=      5-min Rain = 0
KQU1 140037Z 34023G33KT 07/M09 A3006 RMK A01 T00681086  RH  032%=      5-min Rain = 0
KQU1 140038Z 35024G35KT 07/M09 A3006 RMK A01 T00681086  RH  032%=      5-min Rain = 0
KQU1 140039Z 34027G34KT 07/M09 A3006 RMK A01 T00681086  RH  032%=      5-min Rain = 0
KQU1 140040Z 35019G28KT 07/M09 A3007 RMK A01 T00681086  RH  032%=      5-min Rain = 0
KQU1 140041Z 34020G28KT 07/M09 A3006 RMK A01 T00681085  RH  033%=      5-min Rain = 0
KQU1 140042Z 35024G31KT 07/M09 A3007 RMK A01 T00681086  RH  032%=      5-min Rain = 0
KQU1 140043Z 35027G35KT 07/M09 A3007 RMK A01 T00681087  RH  032%=      5-min Rain = 0
KQU1 140044Z 35020G29KT 07/M09 A3007 RMK A01 T00681086  RH  032%=      5-min Rain = 0
KQU1 140045Z 34029G36KT 07/M09 A3006 RMK A01 T00681087  RH  032%=      5-min Rain = 0
KQU1 140046Z 34031G39KT 07/M09 A3007 RMK A01 T00681088  RH  032%=      5-min Rain = 0
KQU1 140047Z 34028G44KT 07/M09 A3007 RMK A01 T00671088  RH  032%=      5-min Rain = 0
KQU1 140048Z 35030G39KT 07/M09 A3007 RMK A01 T00671089  RH  032%=      5-min Rain = 0
KQU1 140049Z 35019G24KT 07/M09 A3007 RMK A01 T00671086  RH  033%=      5-min Rain = 0
KQU1 140050Z 34021G27KT 07/M09 A3007 RMK A01 T00671087  RH  033%=      5-min Rain = 0
KQU1 140051Z 34020G29KT 07/M09 A3007 RMK A01 T00661087  RH  032%=      5-min Rain = 0
KQU1 140052Z 35019G26KT 07/M09 A3007 RMK A01 T00661087  RH  033%=      5-min Rain = 0
KQU1 140053Z 34031G41KT 07/M09 A3006 RMK A01 T00661089  RH  032%=      5-min Rain = 0
KQU1 140054Z 34027G32KT 07/M09 A3006 RMK A01 T00661088  RH  032%=      5-min Rain = 0
KQU1 140055Z 35027G35KT 07/M09 A3007 RMK A01 T00661088  RH  032%=      5-min Rain = 0
KQU1 140056Z 36026G32KT 07/M09 A3007 RMK A01 T00651087  RH  033%=      5-min Rain = 0
KQU1 140057Z 34025G37KT 07/M09 A3007 RMK A01 T00651087  RH  033%=      5-min Rain = 0
KQU1 140058Z 34023G35KT 07/M09 A3007 RMK A01 T00651088  RH  033%=      5-min Rain = 0
KQU1 140059Z 35026G39KT 06/M09 A3007 RMK A01 T00641088  RH  033%=      5-min Rain = 0
KQU1 140100Z 34025G36KT 06/M09 A3007 RMK A01 T00641088  RH  033%=      5-min Rain = 0
KQU1 140101Z 35026G32KT 06/M09 A3007 RMK A01 T00641089  RH  033%=      5-min Rain = 0
KQU1 140102Z 35025G39KT 06/M09 A3007 RMK A01 T00641088  RH  033%=      5-min Rain = 0
KQU1 140103Z 35022G32KT 06/M09 A3007 RMK A01 T00641087  RH  033%=      5-min Rain = 0
KQU1 140104Z 35013KT 06/M08 A3007 RMK A01 T00631084  RH  034%=      5-min Rain = 0
KQU1 140105Z 35022G30KT 06/M09 A3007 RMK A01 T00621087  RH  033%=      5-min Rain = 0
KQU1 140106Z 35028G34KT 06/M09 A3007 RMK A01 T00631088  RH  033%=      5-min Rain = 0
KQU1 140107Z 35031G43KT 06/M09 A3007 RMK A01 T00631089  RH  033%=      5-min Rain = 0
KQU1 140108Z 36025G34KT 06/M09 A3007 RMK A01 T00631088  RH  033%=      5-min Rain = 0
KQU1 140109Z 35026G39KT 06/M09 A3007 RMK A01 T00621088  RH  033%=      5-min Rain = 0
KQU1 140110Z 35024G35KT 06/M09 A3007 RMK A01 T00621087  RH  033%=      5-min Rain = 0
KQU1 140111Z 35022G28KT 06/M09 A3008 RMK A01 T00621087  RH  034%=      5-min Rain = 0
KQU1 140112Z 35029G41KT 06/M09 A3007 RMK A01 T00611090  RH  033%=      5-min Rain = 0
KQU1 140113Z 35029G37KT 06/M09 A3008 RMK A01 T00621089  RH  033%=      5-min Rain = 0
KQU1 140114Z 35026G33KT 06/M09 A3008 RMK A01 T00621089  RH  033%=      5-min Rain = 0
KQU1 140115Z 34024G34KT 06/M09 A3008 RMK A01 T00621089  RH  033%=      5-min Rain = 0
KQU1 140116Z 35028G37KT 06/M09 A3008 RMK A01 T00621090  RH  033%=      5-min Rain = 0
KQU1 140117Z 35022G36KT 06/M09 A3008 RMK A01 T00611088  RH  033%=      5-min Rain = 0
KQU1 140118Z 35019G29KT 06/M09 A3008 RMK A01 T00611088  RH  033%=      5-min Rain = 0
KQU1 140119Z 34020G27KT 06/M09 A3008 RMK A01 T00601089  RH  033%=      5-min Rain = 0
KQU1 140120Z 34029G40KT 06/M09 A3008 RMK A01 T00601089  RH  033%=      5-min Rain = 0
KQU1 140121Z 36026G38KT 06/M09 A3008 RMK A01 T00601089  RH  033%=      5-min Rain = 0
KQU1 140122Z 34031G43KT 06/M09 A3008 RMK A01 T00601090  RH  033%=      5-min Rain = 0
KQU1 140123Z 35025G33KT 06/M09 A3008 RMK A01 T00601090  RH  033%=      5-min Rain = 0
KQU1 140124Z 34026G36KT 06/M09 A3008 RMK A01 T00601090  RH  033%=      5-min Rain = 0
KQU1 140125Z 34031G37KT 06/M09 A3008 RMK A01 T00601091  RH  033%=      5-min Rain = 0
KQU1 140126Z 34030G40KT 06/M09 A3008 RMK A01 T00601090  RH  033%=      5-min Rain = 0
KQU1 140127Z 34024G34KT 06/M09 A3008 RMK A01 T00601090  RH  033%=      5-min Rain = 0
KQU1 140128Z 36024G33KT 06/M09 A3008 RMK A01 T00591089  RH  033%=      5-min Rain = 0
KQU1 140129Z 00020G25KT 06/M09 A3008 RMK A01 T00591088  RH  034%=      5-min Rain = 0
KQU1 140130Z 36020G29KT 06/M09 A3008 RMK A01 T00581089  RH  034%=      5-min Rain = 0
KQU1 140131Z 35020G29KT 06/M09 A3008 RMK A01 T00581088  RH  034%=      5-min Rain = 0
KQU1 140132Z 35021G38KT 06/M09 A3009 RMK A01 T00571087  RH  035%=      5-min Rain = 0
KQU1 140133Z 35026G36KT 06/M09 A3008 RMK A01 T00581089  RH  034%=      5-min Rain = 0
KQU1 140134Z 34022G32KT 06/M09 A3009 RMK A01 T00581089  RH  034%=      5-min Rain = 0
KQU1 140135Z 35030G41KT 06/M09 A3008 RMK A01 T00581090  RH  034%=      5-min Rain = 0
KQU1 140136Z 35033G40KT 06/M09 A3008 RMK A01 T00581091  RH  033%=      5-min Rain = 0
KQU1 140137Z 35028G37KT 06/M09 A3008 RMK A01 T00581090  RH  034%=      5-min Rain = 0
KQU1 140138Z 35029G37KT 06/M09 A3009 RMK A01 T00581090  RH  034%=      5-min Rain = 0
KQU1 140139Z 34033G39KT 06/M09 A3008 RMK A01 T00581091  RH  033%=      5-min Rain = 0
KQU1 140140Z 34026G33KT 06/M09 A3009 RMK A01 T00581091  RH  033%=      5-min Rain = 0
KQU1 140141Z 35029G42KT 06/M09 A3009 RMK A01 T00581091  RH  033%=      5-min Rain = 0
KQU1 140142Z 35024G33KT 06/M09 A3009 RMK A01 T00581090  RH  034%=      5-min Rain = 0
KQU1 140143Z 35028G42KT 06/M09 A3009 RMK A01 T00571089  RH  034%=      5-min Rain = 0
KQU1 140144Z 35028G38KT 06/M09 A3009 RMK A01 T00571091  RH  034%=      5-min Rain = 0
KQU1 140145Z 36025G33KT 06/M09 A3009 RMK A01 T00571090  RH  034%=      5-min Rain = 0
KQU1 140146Z 35027G38KT 06/M09 A3009 RMK A01 T00571091  RH  034%=      5-min Rain = 0
KQU1 140147Z 35024G31KT 06/M09 A3009 RMK A01 T00571091  RH  034%=      5-min Rain = 0
KQU1 140148Z 34022G34KT 06/M09 A3009 RMK A01 T00561090  RH  034%=      5-min Rain = 0
KQU1 140149Z 35029G35KT 06/M09 A3009 RMK A01 T00561092  RH  034%=      5-min Rain = 0
KQU1 140150Z 35025G32KT 06/M09 A3009 RMK A01 T00561091  RH  034%=      5-min Rain = 0
KQU1 140151Z 35023G28KT 06/M09 A3009 RMK A01 T00561091  RH  034%=      5-min Rain = 0
KQU1 140152Z 34026G34KT 06/M09 A3009 RMK A01 T00561091  RH  034%=      5-min Rain = 0
KQU1 140153Z 35025G32KT 06/M09 A301 RMK A01 T00561091  RH  034%=      5-min Rain = 0
KQU1 140154Z 35024G29KT 06/M09 A301 RMK A01 T00561090  RH  034%=      5-min Rain = 0
KQU1 140155Z 36022G27KT 06/M09 A301 RMK A01 T00551090  RH  034%=      5-min Rain = 0
KQU1 140156Z 34026G31KT 06/M09 A301 RMK A01 T00551092  RH  034%=      5-min Rain = 0
KQU1 140157Z 34027G34KT 06/M09 A301 RMK A01 T00551092  RH  034%=      5-min Rain = 0
KQU1 140158Z 35025G33KT 06/M09 A301 RMK A01 T00551091  RH  034%=      5-min Rain = 0
KQU1 140159Z 34026G35KT 05/M09 A301 RMK A01 T00541091  RH  034%=      5-min Rain = 0
KQU1 140200Z 35020G27KT 05/M09 A301 RMK A01 T00541090  RH  034%=      5-min Rain = 0
KQU1 140201Z 35025G36KT 05/M09 A301 RMK A01 T00541091  RH  034%=      5-min Rain = 0
KQU1 140202Z 35022G31KT 05/M09 A301 RMK A01 T00541092  RH  034%=      5-min Rain = 0
KQU1 140203Z 34024G32KT 05/M09 A301 RMK A01 T00531092  RH  034%=      5-min Rain = 0
KQU1 140204Z 35023G35KT 05/M09 A301 RMK A01 T00531091  RH  034%=      5-min Rain = 0
KQU1 140205Z 36023G33KT 05/M09 A301 RMK A01 T00531091  RH  034%=      5-min Rain = 0
KQU1 140206Z 35018G34KT 05/M09 A301 RMK A01 T00531089  RH  035%=      5-min Rain = 0
KQU1 140207Z 36025G33KT 05/M09 A301 RMK A01 T00521091  RH  035%=      5-min Rain = 0
KQU1 140208Z 34020G27KT 05/M09 A301 RMK A01 T00521090  RH  035%=      5-min Rain = 0
KQU1 140209Z 35020G27KT 05/M09 A301 RMK A01 T00521091  RH  035%=      5-min Rain = 0
KQU1 140210Z 35019G27KT 05/M09 A301 RMK A01 T00521091  RH  035%=      5-min Rain = 0
KQU1 140211Z 34024G32KT 05/M09 A301 RMK A01 T00521092  RH  035%=      5-min Rain = 0
KQU1 140212Z 35026G36KT 05/M09 A301 RMK A01 T00521093  RH  034%=      5-min Rain = 0
KQU1 140213Z 34024G39KT 05/M09 A301 RMK A01 T00521092  RH  035%=      5-min Rain = 0
KQU1 140214Z 34028G33KT 05/M09 A301 RMK A01 T00521094  RH  034%=      5-min Rain = 0
KQU1 140215Z 35024G33KT 05/M09 A301 RMK A01 T00521093  RH  034%=      5-min Rain = 0
KQU1 140216Z 35025G35KT 05/M09 A301 RMK A01 T00521094  RH  034%=      5-min Rain = 0
KQU1 140217Z 35022G28KT 05/M09 A301 RMK A01 T00521092  RH  034%=      5-min Rain = 0
KQU1 140218Z 34022G32KT 05/M09 A301 RMK A01 T00521093  RH  034%=      5-min Rain = 0
KQU1 140219Z 35021G29KT 05/M09 A301 RMK A01 T00511093  RH  034%=      5-min Rain = 0
KQU1 140220Z 35024G31KT 05/M09 A301 RMK A01 T00511094  RH  034%=      5-min Rain = 0
KQU1 140221Z 35029G38KT 05/M09 A301 RMK A01 T00511094  RH  034%=      5-min Rain = 0
KQU1 140222Z 35030G43KT 05/M09 A301 RMK A01 T00521094  RH  034%=      5-min Rain = 0
KQU1 140223Z 35022G27KT 05/M09 A301 RMK A01 T00521094  RH  034%=      5-min Rain = 0
KQU1 140224Z 34020G25KT 05/M09 A3011 RMK A01 T00511093  RH  034%=      5-min Rain = 0
KQU1 140225Z 35021G30KT 05/M09 A3011 RMK A01 T00511093  RH  035%=      5-min Rain = 0
KQU1 140226Z 34021G32KT 05/M09 A3011 RMK A01 T00511094  RH  034%=      5-min Rain = 0
KQU1 140227Z 34029G34KT 05/M10 A3011 RMK A01 T00511095  RH  034%=      5-min Rain = 0
KQU1 140228Z 35026G37KT 05/M09 A3011 RMK A01 T00511094  RH  034%=      5-min Rain = 0
KQU1 140229Z 35022G36KT 05/M09 A3011 RMK A01 T00511093  RH  034%=      5-min Rain = 0
KQU1 140230Z 34025G30KT 05/M10 A3011 RMK A01 T00511095  RH  034%=      5-min Rain = 0
KQU1 140231Z 34026G33KT 05/M10 A3011 RMK A01 T00511095  RH  034%=      5-min Rain = 0
KQU1 140232Z 35019G26KT 05/M09 A3012 RMK A01 T00501093  RH  035%=      5-min Rain = 0
KQU1 140233Z 35021G28KT 05/M09 A3012 RMK A01 T00501094  RH  034%=      5-min Rain = 0
KQU1 140234Z 34021G29KT 05/M10 A3012 RMK A01 T00501095  RH  034%=      5-min Rain = 0
KQU1 140235Z 34026G37KT 05/M10 A3012 RMK A01 T00501096  RH  034%=      5-min Rain = 0
KQU1 140236Z 35022G27KT 05/M10 A3011 RMK A01 T00501096  RH  034%=      5-min Rain = 0
KQU1 140237Z 35024KT 05/M10 A3012 RMK A01 T00501096  RH  034%=      5-min Rain = 0
KQU1 140238Z 34024G33KT 05/M10 A3011 RMK A01 T00501096  RH  034%=      5-min Rain = 0
KQU1 140239Z 34023G36KT 05/M10 A3012 RMK A01 T00501095  RH  034%=      5-min Rain = 0
KQU1 140240Z 35025G32KT 05/M10 A3011 RMK A01 T00501096  RH  034%=      5-min Rain = 0
KQU1 140241Z 35023KT 05/M10 A3012 RMK A01 T00501095  RH  034%=      5-min Rain = 0
KQU1 140242Z 35025G31KT 05/M10 A3012 RMK A01 T00501096  RH  034%=      5-min Rain = 0
KQU1 140243Z 35024G31KT 05/M10 A3012 RMK A01 T00491096  RH  034%=      5-min Rain = 0
KQU1 140244Z 34027G34KT 05/M10 A3012 RMK A01 T00501098  RH  033%=      5-min Rain = 0
KQU1 140245Z 34024G33KT 05/M10 A3012 RMK A01 T00501097  RH  034%=      5-min Rain = 0
KQU1 140246Z 35026G36KT 05/M10 A3012 RMK A01 T00501097  RH  034%=      5-min Rain = 0
KQU1 140247Z 34026G34KT 05/M10 A3012 RMK A01 T00501097  RH  034%=      5-min Rain = 0
KQU1 140248Z 35027G36KT 05/M10 A3012 RMK A01 T00501098  RH  033%=      5-min Rain = 0
KQU1 140249Z 35031G39KT 05/M10 A3012 RMK A01 T00501098  RH  033%=      5-min Rain = 0
KQU1 140250Z 34026G38KT 05/M10 A3012 RMK A01 T00501098  RH  033%=      5-min Rain = 0
KQU1 140251Z 35025G35KT 05/M10 A3012 RMK A01 T00501097  RH  034%=      5-min Rain = 0
KQU1 140252Z 34026G37KT 05/M10 A3012 RMK A01 T00491098  RH  033%=      5-min Rain = 0
KQU1 140253Z 34026G37KT 05/M10 A3012 RMK A01 T00491099  RH  033%=      5-min Rain = 0
KQU1 140254Z 34030G36KT 05/M10 A3012 RMK A01 T00501100  RH  033%=      5-min Rain = 0
KQU1 140255Z 34024G32KT 05/M10 A3012 RMK A01 T00501099  RH  033%=      5-min Rain = 0
KQU1 140256Z 35023G30KT 05/M10 A3012 RMK A01 T00491099  RH  033%=      5-min Rain = 0
KQU1 140257Z 34021G31KT 05/M10 A3012 RMK A01 T00491098  RH  034%=      5-min Rain = 0
KQU1 140258Z 35022G33KT 05/M10 A3012 RMK A01 T00481098  RH  034%=      5-min Rain = 0
KQU1 140259Z 34022G28KT 05/M10 A3012 RMK A01 T00481099  RH  034%=      5-min Rain = 0
KQU1 140300Z 35024G36KT 05/M10 A3012 RMK A01 T00481098  RH  034%=      5-min Rain = 0
KQU1 140301Z 34031G41KT 05/M10 A3012 RMK A01 T00481099  RH  033%=      5-min Rain = 0
KQU1 140302Z 35028G39KT 05/M10 A3012 RMK A01 T00491099  RH  033%=      5-min Rain = 0
KQU1 140303Z 34023G33KT 05/M10 A3012 RMK A01 T00481098  RH  034%=      5-min Rain = 0
KQU1 140304Z 34021G30KT 05/M10 A3012 RMK A01 T00481100  RH  033%=      5-min Rain = 0
KQU1 140305Z 34022G30KT 05/M10 A3013 RMK A01 T00481099  RH  034%=      5-min Rain = 0
KQU1 140306Z 33023G40KT 05/M10 A3013 RMK A01 T00481098  RH  034%=      5-min Rain = 0
KQU1 140307Z 34024G34KT 05/M10 A3012 RMK A01 T00481101  RH  033%=      5-min Rain = 0
KQU1 140308Z 34027G35KT 05/M10 A3013 RMK A01 T00481100  RH  033%=      5-min Rain = 0
KQU1 140309Z 35029G36KT 05/M10 A3012 RMK A01 T00481100  RH  033%=      5-min Rain = 0
KQU1 140310Z 35027G33KT 05/M10 A3013 RMK A01 T00481099  RH  034%=      5-min Rain = 0
KQU1 140311Z 35025G34KT 05/M10 A3012 RMK A01 T00481099  RH  034%=      5-min Rain = 0
KQU1 140312Z 35023G32KT 05/M10 A3013 RMK A01 T00481097  RH  034%=      5-min Rain = 0
KQU1 140313Z 35024G30KT 05/M10 A3013 RMK A01 T00471098  RH  034%=      5-min Rain = 0
KQU1 140314Z 35027G33KT 05/M10 A3013 RMK A01 T00471100  RH  034%=      5-min Rain = 0
KQU1 140315Z 35025G34KT 05/M10 A3013 RMK A01 T00471099  RH  034%=      5-min Rain = 0
KQU1 140316Z 35021G30KT 05/M10 A3012 RMK A01 T00471098  RH  034%=      5-min Rain = 0
KQU1 140317Z 35026G33KT 05/M10 A3013 RMK A01 T00471098  RH  034%=      5-min Rain = 0
KQU1 140318Z 35028G38KT 05/M10 A3013 RMK A01 T00471099  RH  034%=      5-min Rain = 0
KQU1 140319Z 34027G35KT 05/M10 A3013 RMK A01 T00471099  RH  034%=      5-min Rain = 0
KQU1 140320Z 34028G34KT 05/M10 A3013 RMK A01 T00471100  RH  034%=      5-min Rain = 0
KQU1 140321Z 34024G35KT 05/M10 A3013 RMK A01 T00471100  RH  034%=      5-min Rain = 0
KQU1 140322Z 34022G27KT 05/M10 A3013 RMK A01 T00461100  RH  034%=      5-min Rain = 0
KQU1 140323Z 33019G25KT 05/M10 A3013 RMK A01 T00461098  RH  034%=      5-min Rain = 0
KQU1 140324Z 35024G33KT 05/M10 A3013 RMK A01 T00451098  RH  034%=      5-min Rain = 0
KQU1 140325Z 34021G28KT 05/M10 A3013 RMK A01 T00451098  RH  035%=      5-min Rain = 0
KQU1 140326Z 34025KT 05/M10 A3013 RMK A01 T00451100  RH  034%=      5-min Rain = 0
KQU1 140327Z 35022G30KT 05/M10 A3013 RMK A01 T00451097  RH  035%=      5-min Rain = 0
KQU1 140328Z 35027G36KT 05/M10 A3013 RMK A01 T00451099  RH  034%=      5-min Rain = 0
KQU1 140329Z 35028G33KT 05/M10 A3013 RMK A01 T00451099  RH  034%=      5-min Rain = 0
KQU1 140330Z 34028G39KT 05/M10 A3013 RMK A01 T00451099  RH  034%=      5-min Rain = 0
KQU1 140331Z 35023G31KT 05/M10 A3013 RMK A01 T00451099  RH  034%=      5-min Rain = 0
KQU1 140332Z 34019G27KT 05/M10 A3013 RMK A01 T00451099  RH  034%=      5-min Rain = 0
KQU1 140333Z 35017G22KT 05/M10 A3013 RMK A01 T00451099  RH  034%=      5-min Rain = 0
KQU1 140334Z 33020G26KT 04/M10 A3013 RMK A01 T00441100  RH  034%=      5-min Rain = 0
KQU1 140335Z 34027G38KT 04/M10 A3013 RMK A01 T00441102  RH  034%=      5-min Rain = 0
KQU1 140336Z 34021G33KT 05/M10 A3013 RMK A01 T00451102  RH  034%=      5-min Rain = 0
KQU1 140337Z 34023G29KT 04/M10 A3013 RMK A01 T00441100  RH  034%=      5-min Rain = 0
KQU1 140338Z 34025G32KT 04/M10 A3013 RMK A01 T00441102  RH  034%=      5-min Rain = 0
KQU1 140339Z 36027G37KT 04/M10 A3013 RMK A01 T00441101  RH  034%=      5-min Rain = 0
KQU1 140340Z 35023G31KT 04/M10 A3013 RMK A01 T00441101  RH  034%=      5-min Rain = 0
KQU1 140341Z 34023G31KT 04/M10 A3013 RMK A01 T00441103  RH  033%=      5-min Rain = 0
KQU1 140342Z 36021G31KT 04/M10 A3013 RMK A01 T00441101  RH  034%=      5-min Rain = 0
KQU1 140343Z 35021G26KT 04/M10 A3013 RMK A01 T00441102  RH  034%=      5-min Rain = 0
KQU1 140344Z 34020G30KT 04/M10 A3013 RMK A01 T00441101  RH  034%=      5-min Rain = 0
KQU1 140345Z 35026G34KT 04/M10 A3013 RMK A01 T00441103  RH  034%=      5-min Rain = 0
KQU1 140346Z 34026G36KT 04/M10 A3013 RMK A01 T00441103  RH  034%=      5-min Rain = 0
KQU1 140347Z 34027G35KT 04/M10 A3013 RMK A01 T00441104  RH  033%=      5-min Rain = 0
KQU1 140348Z 34025G32KT 04/M11 A3013 RMK A01 T00441105  RH  033%=      5-min Rain = 0
KQU1 140349Z 35027G34KT 04/M11 A3013 RMK A01 T00441105  RH  033%=      5-min Rain = 0
KQU1 140350Z 35030G38KT 04/M11 A3013 RMK A01 T00441105  RH  033%=      5-min Rain = 0
KQU1 140351Z 36024G33KT 04/M10 A3013 RMK A01 T00441104  RH  033%=      5-min Rain = 0
KQU1 140352Z 34025G33KT 04/M10 A3013 RMK A01 T00441104  RH  033%=      5-min Rain = 0
KQU1 140353Z 35022G32KT 04/M10 A3014 RMK A01 T00441104  RH  033%=      5-min Rain = 0
KQU1 140354Z 34022G30KT 04/M10 A3014 RMK A01 T00431104  RH  033%=      5-min Rain = 0
KQU1 140355Z 35024G32KT 04/M10 A3013 RMK A01 T00431104  RH  033%=      5-min Rain = 0
KQU1 140356Z 34031G39KT 04/M11 A3014 RMK A01 T00441106  RH  033%=      5-min Rain = 0
KQU1 140357Z 35024G31KT 04/M11 A3014 RMK A01 T00441105  RH  033%=      5-min Rain = 0
KQU1 140358Z 34025KT 04/M11 A3014 RMK A01 T00441107  RH  033%=      5-min Rain = 0
KQU1 140359Z 34025G38KT 04/M11 A3013 RMK A01 T00441106  RH  033%=      5-min Rain = 0
KQU1 140400Z 35026G33KT 04/M11 A3014 RMK A01 T00441107  RH  033%=      5-min Rain = 0
KQU1 140401Z 35025G30KT 04/M11 A3014 RMK A01 T00441107  RH  033%=      5-min Rain = 0
KQU1 140402Z 34018G27KT 04/M11 A3014 RMK A01 T00431106  RH  033%=      5-min Rain = 0
KQU1 140403Z 35026G34KT 04/M11 A3014 RMK A01 T00431106  RH  033%=      5-min Rain = 0
KQU1 140404Z 34032G44KT 04/M11 A3014 RMK A01 T00431109  RH  032%=      5-min Rain = 0
KQU1 140405Z 35027G37KT 04/M11 A3014 RMK A01 T00441108  RH  032%=      5-min Rain = 0
KQU1 140406Z 35028G36KT 04/M11 A3014 RMK A01 T00441107  RH  032%=      5-min Rain = 0
KQU1 140407Z 34023G30KT 04/M11 A3014 RMK A01 T00441107  RH  032%=      5-min Rain = 0
KQU1 140408Z 34026G35KT 04/M11 A3014 RMK A01 T00431108  RH  032%=      5-min Rain = 0
KQU1 140409Z 35021G30KT 04/M11 A3014 RMK A01 T00431107  RH  033%=      5-min Rain = 0
KQU1 140410Z 34021G26KT 04/M11 A3014 RMK A01 T00431107  RH  033%=      5-min Rain = 0
KQU1 140411Z 35024G31KT 04/M11 A3014 RMK A01 T00431108  RH  033%=      5-min Rain = 0
KQU1 140412Z 35028KT 04/M11 A3014 RMK A01 T00431108  RH  032%=      5-min Rain = 0
KQU1 140413Z 34030G36KT 04/M11 A3014 RMK A01 T00431108  RH  032%=      5-min Rain = 0
KQU1 140414Z 35024G32KT 04/M11 A3014 RMK A01 T00431107  RH  033%=      5-min Rain = 0
KQU1 140415Z 34028G36KT 04/M11 A3014 RMK A01 T00431107  RH  033%=      5-min Rain = 0
KQU1 140416Z 34025G34KT 04/M11 A3014 RMK A01 T00431108  RH  032%=      5-min Rain = 0
KQU1 140417Z 34027G34KT 04/M11 A3014 RMK A01 T00431107  RH  033%=      5-min Rain = 0
KQU1 140418Z 34025G34KT 04/M11 A3014 RMK A01 T00431107  RH  033%=      5-min Rain = 0
KQU1 140419Z 34023G32KT 04/M11 A3014 RMK A01 T00431108  RH  033%=      5-min Rain = 0
KQU1 140420Z 34024G31KT 04/M11 A3014 RMK A01 T00431107  RH  033%=      5-min Rain = 0
KQU1 140421Z 34018G29KT 04/M11 A3014 RMK A01 T00431108  RH  032%=      5-min Rain = 0
KQU1 140422Z 35019G28KT 04/M11 A3014 RMK A01 T00421108  RH  033%=      5-min Rain = 0
KQU1 140423Z 35024G31KT 04/M11 A3014 RMK A01 T00421108  RH  033%=      5-min Rain = 0
KQU1 140424Z 35026G33KT 04/M11 A3014 RMK A01 T00421108  RH  033%=      5-min Rain = 0
KQU1 140425Z 35023G40KT 04/M11 A3015 RMK A01 T00431108  RH  032%=      5-min Rain = 0
KQU1 140426Z 35025G33KT 04/M11 A3014 RMK A01 T00431108  RH  032%=      5-min Rain = 0
KQU1 140427Z 34024G31KT 04/M11 A3014 RMK A01 T00431108  RH  032%=      5-min Rain = 0
KQU1 140428Z 34028G38KT 04/M11 A3014 RMK A01 T00421109  RH  032%=      5-min Rain = 0
KQU1 140429Z 34029G35KT 04/M11 A3014 RMK A01 T00431110  RH  032%=      5-min Rain = 0
KQU1 140430Z 35029G40KT 04/M11 A3014 RMK A01 T00431108  RH  032%=      5-min Rain = 0
KQU1 140431Z 34025G32KT 04/M11 A3015 RMK A01 T00431108  RH  032%=      5-min Rain = 0
KQU1 140432Z 34025G30KT 04/M11 A3015 RMK A01 T00431108  RH  032%=      5-min Rain = 0
KQU1 140433Z 34022G28KT 04/M11 A3015 RMK A01 T00431107  RH  033%=      5-min Rain = 0
KQU1 140434Z 34025G30KT 04/M11 A3015 RMK A01 T00421108  RH  033%=      5-min Rain = 0
KQU1 140435Z 34024G35KT 04/M11 A3015 RMK A01 T00421108  RH  033%=      5-min Rain = 0
KQU1 140436Z 35031G40KT 04/M11 A3015 RMK A01 T00421107  RH  033%=      5-min Rain = 0
KQU1 140437Z 34026G33KT 04/M11 A3015 RMK A01 T00421105  RH  033%=      5-min Rain = 0
KQU1 140438Z 34029G36KT 04/M11 A3014 RMK A01 T00421106  RH  033%=      5-min Rain = 0
KQU1 140439Z 35030G36KT 04/M11 A3015 RMK A01 T00421106  RH  033%=      5-min Rain = 0
KQU1 140440Z 34025G32KT 04/M10 A3015 RMK A01 T00421104  RH  034%=      5-min Rain = 0
KQU1 140441Z 35025G31KT 04/M10 A3015 RMK A01 T00421104  RH  034%=      5-min Rain = 0
KQU1 140442Z 34028G35KT 04/M11 A3015 RMK A01 T00421105  RH  033%=      5-min Rain = 0
KQU1 140443Z 34029G37KT 04/M11 A3015 RMK A01 T00421105  RH  033%=      5-min Rain = 0
KQU1 140444Z 35030G39KT 04/M11 A3015 RMK A01 T00421105  RH  034%=      5-min Rain = 0
KQU1 140445Z 35025G32KT 04/M10 A3015 RMK A01 T00421103  RH  034%=      5-min Rain = 0
KQU1 140446Z 34027G35KT 04/M11 A3015 RMK A01 T00421105  RH  033%=      5-min Rain = 0
KQU1 140447Z 34031G45KT 04/M11 A3015 RMK A01 T00421105  RH  033%=      5-min Rain = 0
KQU1 140448Z 34028G37KT 04/M11 A3015 RMK A01 T00421105  RH  034%=      5-min Rain = 0
KQU1 140449Z 34028G38KT 04/M10 A3015 RMK A01 T00411103  RH  034%=      5-min Rain = 0
KQU1 140450Z 34021G29KT 04/M11 A3015 RMK A01 T00411105  RH  034%=      5-min Rain = 0
KQU1 140451Z 35024G33KT 04/M11 A3015 RMK A01 T00411105  RH  034%=      5-min Rain = 0
KQU1 140452Z 35024G31KT 04/M10 A3015 RMK A01 T00411104  RH  034%=      5-min Rain = 0
KQU1 140453Z 35023G29KT 04/M11 A3015 RMK A01 T00411105  RH  034%=      5-min Rain = 0
KQU1 140454Z 35023G35KT 04/M10 A3015 RMK A01 T00401103  RH  034%=      5-min Rain = 0
KQU1 140455Z 35026G36KT 04/M10 A3015 RMK A01 T00401104  RH  034%=      5-min Rain = 0
KQU1 140456Z 34028G36KT 04/M11 A3015 RMK A01 T00401106  RH  034%=      5-min Rain = 0
KQU1 140457Z 35025G36KT 04/M11 A3015 RMK A01 T00411105  RH  034%=      5-min Rain = 0
KQU1 140458Z 35028G37KT 04/M10 A3015 RMK A01 T00401104  RH  034%=      5-min Rain = 0
KQU1 140459Z 35031G38KT 04/M11 A3015 RMK A01 T00401106  RH  033%=      5-min Rain = 0
KQU1 140500Z 35029G39KT 04/M11 A3015 RMK A01 T00411106  RH  033%=      5-min Rain = 0
KQU1 140501Z 35023G34KT 04/M11 A3015 RMK A01 T00411105  RH  034%=      5-min Rain = 0
KQU1 140502Z 34027G36KT 04/M11 A3015 RMK A01 T00411107  RH  033%=      5-min Rain = 0
KQU1 140503Z 34023G32KT 04/M11 A3015 RMK A01 T00411106  RH  033%=      5-min Rain = 0
KQU1 140504Z 35027G34KT 04/M11 A3015 RMK A01 T00401105  RH  034%=      5-min Rain = 0
KQU1 140505Z 34027G38KT 04/M11 A3015 RMK A01 T00401106  RH  033%=      5-min Rain = 0
KQU1 140506Z 35023G28KT 04/M11 A3015 RMK A01 T00401105  RH  034%=      5-min Rain = 0
KQU1 140507Z 35020G26KT 04/M10 A3015 RMK A01 T00401103  RH  035%=      5-min Rain = 0
KQU1 140508Z 34020G27KT 04/M10 A3016 RMK A01 T00391104  RH  034%=      5-min Rain = 0
KQU1 140509Z 35025G33KT 04/M10 A3016 RMK A01 T00391104  RH  034%=      5-min Rain = 0
KQU1 140510Z 34026G32KT 04/M11 A3016 RMK A01 T00391105  RH  034%=      5-min Rain = 0
KQU1 140511Z 34022G29KT 04/M11 A3016 RMK A01 T00391105  RH  034%=      5-min Rain = 0
KQU1 140512Z 34025G31KT 04/M11 A3016 RMK A01 T00391105  RH  034%=      5-min Rain = 0
KQU1 140513Z 35025G36KT 04/M11 A3016 RMK A01 T00391106  RH  034%=      5-min Rain = 0
KQU1 140514Z 34026G33KT 04/M11 A3016 RMK A01 T00391106  RH  034%=      5-min Rain = 0
KQU1 140515Z 34026G36KT 04/M11 A3016 RMK A01 T00391106  RH  034%=      5-min Rain = 0
KQU1 140516Z 34028G35KT 04/M11 A3016 RMK A01 T00401108  RH  033%=      5-min Rain = 0
KQU1 140517Z 35028G35KT 04/M11 A3016 RMK A01 T00401107  RH  033%=      5-min Rain = 0
KQU1 140518Z 35029G39KT 04/M11 A3016 RMK A01 T00401105  RH  034%=      5-min Rain = 0
KQU1 140519Z 34027G36KT 04/M11 A3016 RMK A01 T00401107  RH  034%=      5-min Rain = 0
KQU1 140520Z 35026G35KT 04/M11 A3016 RMK A01 T00391107  RH  034%=      5-min Rain = 0
KQU1 140521Z 34031G41KT 04/M11 A3016 RMK A01 T00391107  RH  034%=      5-min Rain = 0
KQU1 140522Z 34029G35KT 04/M11 A3016 RMK A01 T00391107  RH  034%=      5-min Rain = 0
KQU1 140523Z 35024G32KT 04/M11 A3016 RMK A01 T00391106  RH  034%=      5-min Rain = 0
KQU1 140524Z 34023G33KT 04/M11 A3016 RMK A01 T00391105  RH  034%=      5-min Rain = 0
KQU1 140525Z 35025G37KT 04/M11 A3016 RMK A01 T00391105  RH  034%=      5-min Rain = 0
KQU1 140526Z 34027G35KT 04/M11 A3016 RMK A01 T00381106  RH  034%=      5-min Rain = 0
KQU1 140527Z 35024G31KT 04/M11 A3016 RMK A01 T00381106  RH  034%=      5-min Rain = 0
KQU1 140528Z 34024G31KT 04/M11 A3016 RMK A01 T00381106  RH  034%=      5-min Rain = 0
KQU1 140529Z 34028G37KT 04/M11 A3016 RMK A01 T00381106  RH  034%=      5-min Rain = 0
KQU1 140530Z 34025G33KT 04/M11 A3016 RMK A01 T00381106  RH  034%=      5-min Rain = 0
KQU1 140531Z 35024G32KT 04/M11 A3016 RMK A01 T00381105  RH  034%=      5-min Rain = 0
KQU1 140532Z 34020G28KT 04/M10 A3016 RMK A01 T00371103  RH  035%=      5-min Rain = 0
KQU1 140533Z 35024G31KT 04/M11 A3016 RMK A01 T00371105  RH  034%=      5-min Rain = 0
KQU1 140534Z 34020G27KT 04/M11 A3016 RMK A01 T00371105  RH  034%=      5-min Rain = 0
KQU1 140535Z 34022G30KT 04/M11 A3017 RMK A01 T00371105  RH  035%=      5-min Rain = 0
KQU1 140536Z 34022G30KT 04/M11 A3016 RMK A01 T00371106  RH  034%=      5-min Rain = 0
KQU1 140537Z 34020G27KT 04/M11 A3016 RMK A01 T00361105  RH  035%=      5-min Rain = 0
KQU1 140538Z 34025G32KT 04/M11 A3016 RMK A01 T00361105  RH  035%=      5-min Rain = 0
KQU1 140539Z 34023G33KT 04/M11 A3016 RMK A01 T00371106  RH  034%=      5-min Rain = 0
KQU1 140540Z 34030KT 04/M11 A3016 RMK A01 T00371110  RH  033%=      5-min Rain = 0
KQU1 140541Z 35028G35KT 04/M11 A3016 RMK A01 T00381109  RH  033%=      5-min Rain = 0
KQU1 140542Z 35025G31KT 04/M11 A3017 RMK A01 T00381108  RH  034%=      5-min Rain = 0
KQU1 140543Z 34021G31KT 04/M11 A3016 RMK A01 T00371108  RH  034%=      5-min Rain = 0
KQU1 140544Z 35021G26KT 04/M11 A3016 RMK A01 T00371107  RH  034%=      5-min Rain = 0
KQU1 140545Z 34027G33KT 04/M11 A3016 RMK A01 T00371108  RH  034%=      5-min Rain = 0
KQU1 140546Z 35025G40KT 04/M11 A3016 RMK A01 T00371110  RH  033%=      5-min Rain = 0
KQU1 140547Z 35025G33KT 04/M11 A3016 RMK A01 T00381109  RH  033%=      5-min Rain = 0
KQU1 140548Z 35023G33KT 04/M11 A3017 RMK A01 T00371107  RH  034%=      5-min Rain = 0
KQU1 140549Z 35023G30KT 04/M11 A3017 RMK A01 T00371109  RH  034%=      5-min Rain = 0
KQU1 140550Z 35023G40KT 04/M11 A3017 RMK A01 T00371108  RH  034%=      5-min Rain = 0
KQU1 140551Z 35021G30KT 04/M11 A3017 RMK A01 T00371107  RH  034%=      5-min Rain = 0
KQU1 140552Z 34021G27KT 04/M11 A3017 RMK A01 T00361109  RH  034%=      5-min Rain = 0
KQU1 140553Z 34019G24KT 04/M11 A3017 RMK A01 T00361109  RH  034%=      5-min Rain = 0
KQU1 140554Z 35026G35KT 04/M11 A3016 RMK A01 T00371109  RH  034%=      5-min Rain = 0
KQU1 140555Z 34024KT 04/M11 A3016 RMK A01 T00371109  RH  034%=      5-min Rain = 0
KQU1 140556Z 35023G29KT 04/M11 A3016 RMK A01 T00371108  RH  034%=      5-min Rain = 0
KQU1 140557Z 35027G40KT 04/M11 A3017 RMK A01 T00371110  RH  033%=      5-min Rain = 0
KQU1 140558Z 34025G39KT 04/M11 A3017 RMK A01 T00371110  RH  033%=      5-min Rain = 0
KQU1 140559Z 35022G31KT 04/M11 A3017 RMK A01 T00371110  RH  033%=      5-min Rain = 0
KQU1 140600Z 34020G31KT 04/M11 A3017 RMK A01 T00371108  RH  034%=      5-min Rain = 0

Page generated in 0.0328 seconds.